Observation data for Fort McKavett on 07/19/2019      Previous  Date  Next       Current Mesonet Observations  Soil Data  Daily Summary Page  Observations in Plain Language
KMC1 190500Z 15011KT 28/20 A2998 RMK A01 T02830197  RH  060%=      5-min Rain = 0
KMC1 190501Z 14009G15KT 28/20 A2998 RMK A01 T02830197  RH  060%=      5-min Rain = 0
KMC1 190502Z 14011G16KT 28/20 A2998 RMK A01 T02830197  RH  060%=      5-min Rain = 0
KMC1 190503Z 14012KT 28/20 A2998 RMK A01 T02830198  RH  060%=      5-min Rain = 0
KMC1 190504Z 15009KT 28/20 A2998 RMK A01 T02830198  RH  060%=      5-min Rain = 0
KMC1 190505Z 14009KT 28/20 A2998 RMK A01 T02830198  RH  060%=      5-min Rain = 0
KMC1 190506Z 14010KT 28/20 A2999 RMK A01 T02830198  RH  060%=      5-min Rain = 0
KMC1 190507Z 14009KT 28/20 A2999 RMK A01 T02830198  RH  060%=      5-min Rain = 0
KMC1 190508Z 15007KT 28/20 A2999 RMK A01 T02830199  RH  060%=      5-min Rain = 0
KMC1 190509Z 14007KT 28/20 A2999 RMK A01 T02830198  RH  060%=      5-min Rain = 0
KMC1 190510Z 14008G13KT 28/20 A2999 RMK A01 T02820198  RH  060%=      5-min Rain = 0
KMC1 190511Z 14007KT 28/20 A2999 RMK A01 T02810198  RH  060%=      5-min Rain = 0
KMC1 190512Z 13007KT 28/20 A2999 RMK A01 T02810198  RH  060%=      5-min Rain = 0
KMC1 190513Z 13007KT 28/20 A2999 RMK A01 T02810197  RH  061%=      5-min Rain = 0
KMC1 190514Z 14008G14KT 28/20 A2999 RMK A01 T02800197  RH  061%=      5-min Rain = 0
KMC1 190515Z 14009KT 28/20 A2999 RMK A01 T02800197  RH  061%=      5-min Rain = 0
KMC1 190516Z 14009KT 28/20 A2999 RMK A01 T02800197  RH  061%=      5-min Rain = 0
KMC1 190517Z 13011KT 28/20 A2999 RMK A01 T02800197  RH  061%=      5-min Rain = 0
KMC1 190518Z 14010KT 28/20 A2999 RMK A01 T02800197  RH  061%=      5-min Rain = 0
KMC1 190519Z 14009KT 28/20 A2999 RMK A01 T02790197  RH  061%=      5-min Rain = 0
KMC1 190520Z 14007KT 28/20 A2999 RMK A01 T02790198  RH  061%=      5-min Rain = 0
KMC1 190521Z 13009G14KT 28/20 A2999 RMK A01 T02790197  RH  061%=      5-min Rain = 0
KMC1 190522Z 14008KT 28/20 A2999 RMK A01 T02780197  RH  061%=      5-min Rain = 0
KMC1 190523Z 14009G14KT 28/20 A2999 RMK A01 T02780198  RH  062%=      5-min Rain = 0
KMC1 190524Z 14009KT 28/20 A2999 RMK A01 T02780198  RH  062%=      5-min Rain = 0
KMC1 190525Z 13010KT 28/20 A2999 RMK A01 T02780198  RH  062%=      5-min Rain = 0
KMC1 190526Z 14008KT 28/20 A2999 RMK A01 T02780198  RH  062%=      5-min Rain = 0
KMC1 190527Z 14008KT 28/20 A2999 RMK A01 T02780198  RH  062%=      5-min Rain = 0
KMC1 190528Z 14009KT 28/20 A2999 RMK A01 T02770199  RH  062%=      5-min Rain = 0
KMC1 190529Z 14010KT 28/20 A2999 RMK A01 T02770199  RH  062%=      5-min Rain = 0
KMC1 190530Z 14007G12KT 28/20 A2999 RMK A01 T02770199  RH  062%=      5-min Rain = 0
KMC1 190531Z 14006KT 28/20 A2999 RMK A01 T02770199  RH  062%=      5-min Rain = 0
KMC1 190532Z 14008KT 28/20 A2999 RMK A01 T02770199  RH  063%=      5-min Rain = 0
KMC1 190533Z 14009KT 28/20 A2999 RMK A01 T02760200  RH  063%=      5-min Rain = 0
KMC1 190534Z 13007KT 28/20 A2999 RMK A01 T02760200  RH  063%=      5-min Rain = 0
KMC1 190535Z 14008KT 28/20 A2999 RMK A01 T02760200  RH  063%=      5-min Rain = 0
KMC1 190536Z 14011KT 28/20 A2999 RMK A01 T02750200  RH  064%=      5-min Rain = 0
KMC1 190537Z 13009KT 28/20 A2999 RMK A01 T02750201  RH  064%=      5-min Rain = 0
KMC1 190538Z 15006KT 28/20 A2999 RMK A01 T02750200  RH  064%=      5-min Rain = 0
KMC1 190539Z 14009G15KT 28/20 A2999 RMK A01 T02750201  RH  064%=      5-min Rain = 0
KMC1 190540Z 14009KT 28/20 A2999 RMK A01 T02750202  RH  065%=      5-min Rain = 0
KMC1 190541Z 15008KT 28/20 A2998 RMK A01 T02750203  RH  065%=      5-min Rain = 0
KMC1 190542Z 14007G12KT 28/20 A2998 RMK A01 T02750203  RH  065%=      5-min Rain = 0
KMC1 190543Z 14006KT 27/20 A2998 RMK A01 T02740203  RH  065%=      5-min Rain = 0
KMC1 190544Z 15007KT 27/20 A2998 RMK A01 T02740203  RH  065%=      5-min Rain = 0
KMC1 190545Z 13010KT 27/20 A2998 RMK A01 T02730204  RH  066%=      5-min Rain = 0
KMC1 190546Z 14007KT 27/21 A2998 RMK A01 T02730205  RH  066%=      5-min Rain = 0
KMC1 190547Z 14007KT 27/21 A2998 RMK A01 T02730205  RH  066%=      5-min Rain = 0
KMC1 190548Z 14008G13KT 27/21 A2998 RMK A01 T02730205  RH  066%=      5-min Rain = 0
KMC1 190549Z 15009KT 27/21 A2998 RMK A01 T02730206  RH  067%=      5-min Rain = 0
KMC1 190550Z 14009KT 27/21 A2998 RMK A01 T02730206  RH  067%=      5-min Rain = 0
KMC1 190551Z 14009KT 27/21 A2999 RMK A01 T02730206  RH  067%=      5-min Rain = 0
KMC1 190552Z 14010G15KT 27/21 A2998 RMK A01 T02730207  RH  067%=      5-min Rain = 0
KMC1 190553Z 14007G12KT 27/21 A2998 RMK A01 T02730207  RH  067%=      5-min Rain = 0
KMC1 190554Z 14008KT 27/21 A2999 RMK A01 T02730208  RH  067%=      5-min Rain = 0
KMC1 190555Z 14008G14KT 27/21 A2999 RMK A01 T02730208  RH  067%=      5-min Rain = 0
KMC1 190556Z 14007KT 27/21 A2999 RMK A01 T02730208  RH  068%=      5-min Rain = 0
KMC1 190557Z 15006KT 27/21 A2999 RMK A01 T02720208  RH  068%=      5-min Rain = 0
KMC1 190558Z 14006KT 27/21 A2999 RMK A01 T02720208  RH  068%=      5-min Rain = 0
KMC1 190559Z 14009KT 27/21 A2999 RMK A01 T02720208  RH  068%=      5-min Rain = 0
KMC1 190600Z 14007KT 27/21 A2999 RMK A01 T02720209  RH  068%=      5-min Rain = 0
KMC1 190601Z 14007KT 27/21 A2999 RMK A01 T02720209  RH  068%=      5-min Rain = 0
KMC1 190602Z 14005KT 27/21 A2999 RMK A01 T02710209  RH  069%=      5-min Rain = 0
KMC1 190603Z 14005KT 27/21 A2999 RMK A01 T02710209  RH  069%=      5-min Rain = 0
KMC1 190604Z 14005KT 27/21 A2999 RMK A01 T02710209  RH  069%=      5-min Rain = 0
KMC1 190605Z 16009KT 27/21 A2999 RMK A01 T02700209  RH  069%=      5-min Rain = 0
KMC1 190606Z 15007KT 27/21 A2999 RMK A01 T02700209  RH  069%=      5-min Rain = 0
KMC1 190607Z 14009KT 27/21 A2999 RMK A01 T02700209  RH  069%=      5-min Rain = 0
KMC1 190608Z 16005KT 27/21 A2999 RMK A01 T02700209  RH  069%=      5-min Rain = 0
KMC1 190609Z 14008KT 27/21 A2999 RMK A01 T02700210  RH  070%=      5-min Rain = 0
KMC1 190610Z 14008KT 27/21 A2999 RMK A01 T02700210  RH  070%=      5-min Rain = 0
KMC1 190611Z 14008KT 27/21 A2999 RMK A01 T02700210  RH  070%=      5-min Rain = 0
KMC1 190612Z 14005KT 27/21 A2999 RMK A01 T02700210  RH  070%=      5-min Rain = 0
KMC1 190613Z 14006KT 27/21 A2999 RMK A01 T02700210  RH  070%=      5-min Rain = 0
KMC1 190614Z 14007KT 27/21 A2999 RMK A01 T02690210  RH  070%=      5-min Rain = 0
KMC1 190615Z 15009G14KT 27/21 A2999 RMK A01 T02690210  RH  070%=      5-min Rain = 0
KMC1 190616Z 15009KT 27/21 A2999 RMK A01 T02690210  RH  070%=      5-min Rain = 0
KMC1 190617Z 14009G14KT 27/21 A2999 RMK A01 T02690210  RH  070%=      5-min Rain = 0
KMC1 190618Z 14009KT 27/21 A2999 RMK A01 T02690210  RH  070%=      5-min Rain = 0
KMC1 190619Z 15011KT 27/21 A2999 RMK A01 T02690210  RH  070%=      5-min Rain = 0
KMC1 190620Z 14010KT 27/21 A2999 RMK A01 T02690210  RH  070%=      5-min Rain = 0
KMC1 190621Z 15009G14KT 27/21 A2999 RMK A01 T02690210  RH  070%=      5-min Rain = 0
KMC1 190622Z 15010KT 27/21 A2999 RMK A01 T02690210  RH  070%=      5-min Rain = 0
KMC1 190623Z 15010G18KT 27/21 A2999 RMK A01 T02690210  RH  070%=      5-min Rain = 0
KMC1 190624Z 16008KT 27/21 A2999 RMK A01 T02690210  RH  070%=      5-min Rain = 0
KMC1 190625Z 14008KT 27/21 A2999 RMK A01 T02690210  RH  070%=      5-min Rain = 0
KMC1 190626Z 15013KT 27/21 A2999 RMK A01 T02690211  RH  070%=      5-min Rain = 0
KMC1 190627Z 15009KT 27/21 A2999 RMK A01 T02690211  RH  070%=      5-min Rain = 0
KMC1 190628Z 15011G17KT 27/21 A2999 RMK A01 T02690211  RH  070%=      5-min Rain = 0
KMC1 190629Z 16010G15KT 27/21 A2999 RMK A01 T02690211  RH  070%=      5-min Rain = 0
KMC1 190630Z 15008KT 27/21 A2999 RMK A01 T02690211  RH  070%=      5-min Rain = 0
KMC1 190631Z 15008G15KT 27/21 A2999 RMK A01 T02690211  RH  070%=      5-min Rain = 0
KMC1 190632Z 16010G15KT 27/21 A2999 RMK A01 T02690211  RH  070%=      5-min Rain = 0
KMC1 190633Z 14008G14KT 27/21 A2999 RMK A01 T02690211  RH  071%=      5-min Rain = 0
KMC1 190634Z 15010KT 27/21 A2999 RMK A01 T02680210  RH  071%=      5-min Rain = 0
KMC1 190635Z 15010KT 27/21 A2999 RMK A01 T02680210  RH  071%=      5-min Rain = 0
KMC1 190636Z 14008KT 27/21 A2999 RMK A01 T02680211  RH  071%=      5-min Rain = 0
KMC1 190637Z 16007KT 27/21 A2999 RMK A01 T02680210  RH  071%=      5-min Rain = 0
KMC1 190638Z 14011G16KT 27/21 A2999 RMK A01 T02670210  RH  071%=      5-min Rain = 0
KMC1 190639Z 15013G18KT 27/21 A2999 RMK A01 T02670210  RH  071%=      5-min Rain = 0
KMC1 190640Z 14010KT 27/21 A2999 RMK A01 T02670210  RH  071%=      5-min Rain = 0
KMC1 190641Z 15010KT 27/21 A2999 RMK A01 T02670210  RH  071%=      5-min Rain = 0
KMC1 190642Z 15008G13KT 27/21 A2999 RMK A01 T02670210  RH  071%=      5-min Rain = 0
KMC1 190643Z 16009KT 27/21 A2999 RMK A01 T02670210  RH  071%=      5-min Rain = 0
KMC1 190644Z 14006KT 27/21 A2999 RMK A01 T02670210  RH  071%=      5-min Rain = 0
KMC1 190645Z 16006KT 27/21 A2999 RMK A01 T02660210  RH  071%=      5-min Rain = 0
KMC1 190646Z 15008KT 27/21 A2999 RMK A01 T02660209  RH  071%=      5-min Rain = 0
KMC1 190647Z 16012G18KT 27/21 A2999 RMK A01 T02660210  RH  071%=      5-min Rain = 0
KMC1 190648Z 15007KT 27/21 A2999 RMK A01 T02660209  RH  071%=      5-min Rain = 0
KMC1 190649Z 14008KT 27/21 A2999 RMK A01 T02660209  RH  071%=      5-min Rain = 0
KMC1 190650Z 16007KT 27/21 A2999 RMK A01 T02660209  RH  071%=      5-min Rain = 0
KMC1 190651Z 15008G13KT 27/21 A2999 RMK A01 T02650209  RH  071%=      5-min Rain = 0
KMC1 190652Z 13009G15KT 27/21 A2999 RMK A01 T02650208  RH  071%=      5-min Rain = 0
KMC1 190653Z 15008G16KT 27/21 A2999 RMK A01 T02650208  RH  071%=      5-min Rain = 0
KMC1 190654Z 15009KT 27/21 A2999 RMK A01 T02650208  RH  071%=      5-min Rain = 0
KMC1 190655Z 15007KT 27/21 A2999 RMK A01 T02650208  RH  071%=      5-min Rain = 0
KMC1 190656Z 15009G14KT 26/21 A2999 RMK A01 T02640208  RH  071%=      5-min Rain = 0
KMC1 190657Z 15008KT 27/21 A2999 RMK A01 T02650208  RH  071%=      5-min Rain = 0
KMC1 190658Z 15007KT 27/21 A2999 RMK A01 T02650208  RH  071%=      5-min Rain = 0
KMC1 190659Z 15006KT 26/21 A2999 RMK A01 T02640208  RH  071%=      5-min Rain = 0
KMC1 190700Z 15007KT 26/21 A2999 RMK A01 T02630208  RH  071%=      5-min Rain = 0
KMC1 190701Z 15009KT 26/21 A2999 RMK A01 T02630208  RH  072%=      5-min Rain = 0
KMC1 190702Z 15008KT 26/21 A2999 RMK A01 T02630208  RH  072%=      5-min Rain = 0
KMC1 190703Z 14007KT 26/21 A2999 RMK A01 T02630208  RH  072%=      5-min Rain = 0
KMC1 190704Z 15008KT 26/21 A2999 RMK A01 T02630208  RH  072%=      5-min Rain = 0
KMC1 190705Z 15007G12KT 26/21 A2999 RMK A01 T02630208  RH  072%=      5-min Rain = 0
KMC1 190706Z 15007KT 26/21 A2999 RMK A01 T02620208  RH  072%=      5-min Rain = 0
KMC1 190707Z 15010G15KT 26/21 A2999 RMK A01 T02620208  RH  072%=      5-min Rain = 0
KMC1 190708Z 15009KT 26/21 A2999 RMK A01 T02620207  RH  072%=      5-min Rain = 0
KMC1 190709Z 15009KT 26/21 A2999 RMK A01 T02620208  RH  072%=      5-min Rain = 0
KMC1 190710Z 15010KT 26/21 A2999 RMK A01 T02620207  RH  072%=      5-min Rain = 0
KMC1 190711Z 15010KT 26/21 A2999 RMK A01 T02620207  RH  072%=      5-min Rain = 0
KMC1 190712Z 16011G16KT 26/21 A2999 RMK A01 T02620207  RH  072%=      5-min Rain = 0
KMC1 190713Z 15008G13KT 26/21 A2999 RMK A01 T02610207  RH  072%=      5-min Rain = 0
KMC1 190714Z 14008G15KT 26/21 A2999 RMK A01 T02610207  RH  072%=      5-min Rain = 0
KMC1 190715Z 14007KT 26/21 A2999 RMK A01 T02610207  RH  072%=      5-min Rain = 0
KMC1 190716Z 14010G16KT 26/21 A2999 RMK A01 T02610207  RH  072%=      5-min Rain = 0
KMC1 190717Z 14009G14KT 26/21 A2999 RMK A01 T02600207  RH  072%=      5-min Rain = 0
KMC1 190718Z 15009KT 26/21 A2999 RMK A01 T02600207  RH  072%=      5-min Rain = 0
KMC1 190719Z 14009KT 26/21 A2999 RMK A01 T02600207  RH  072%=      5-min Rain = 0
KMC1 190720Z 16007G12KT 26/21 A2999 RMK A01 T02600206  RH  072%=      5-min Rain = 0
KMC1 190721Z 15008KT 26/21 A2999 RMK A01 T02600206  RH  072%=      5-min Rain = 0
KMC1 190722Z 15009KT 26/21 A2999 RMK A01 T02590206  RH  073%=      5-min Rain = 0
KMC1 190723Z 15009G16KT 26/21 A2999 RMK A01 T02590206  RH  073%=      5-min Rain = 0
KMC1 190724Z 15009KT 26/21 A2999 RMK A01 T02590206  RH  073%=      5-min Rain = 0
KMC1 190725Z 16008KT 26/21 A2999 RMK A01 T02590206  RH  073%=      5-min Rain = 0
KMC1 190726Z 14009G14KT 26/21 A2999 RMK A01 T02590206  RH  073%=      5-min Rain = 0
KMC1 190727Z 16010KT 26/21 A2999 RMK A01 T02590206  RH  073%=      5-min Rain = 0
KMC1 190728Z 14008G14KT 26/21 A2999 RMK A01 T02590206  RH  072%=      5-min Rain = 0
KMC1 190729Z 16008KT 26/21 A2999 RMK A01 T02590205  RH  072%=      5-min Rain = 0
KMC1 190730Z 16009KT 26/21 A2999 RMK A01 T02580205  RH  073%=      5-min Rain = 0
KMC1 190731Z 15010KT 26/21 A2999 RMK A01 T02580205  RH  073%=      5-min Rain = 0
KMC1 190732Z 16008KT 26/21 A2999 RMK A01 T02590206  RH  073%=      5-min Rain = 0
KMC1 190733Z 15007KT 26/21 A2999 RMK A01 T02590205  RH  072%=      5-min Rain = 0
KMC1 190734Z 16009G14KT 26/21 A2999 RMK A01 T02580205  RH  073%=      5-min Rain = 0
KMC1 190735Z 15007KT 26/21 A2999 RMK A01 T02580205  RH  073%=      5-min Rain = 0
KMC1 190736Z 16006KT 26/21 A2999 RMK A01 T02570205  RH  073%=      5-min Rain = 0
KMC1 190737Z 16006KT 26/21 A2999 RMK A01 T02570205  RH  073%=      5-min Rain = 0
KMC1 190738Z 16009KT 26/21 A2999 RMK A01 T02570205  RH  073%=      5-min Rain = 0
KMC1 190739Z 15010KT 26/21 A2999 RMK A01 T02560205  RH  073%=      5-min Rain = 0
KMC1 190740Z 14007KT 26/21 A2999 RMK A01 T02560205  RH  073%=      5-min Rain = 0
KMC1 190741Z 15006KT 26/21 A2999 RMK A01 T02560205  RH  073%=      5-min Rain = 0
KMC1 190742Z 16007KT 26/21 A2999 RMK A01 T02560205  RH  073%=      5-min Rain = 0
KMC1 190743Z 15006KT 26/21 A2999 RMK A01 T02560205  RH  073%=      5-min Rain = 0
KMC1 190744Z 16007KT 26/21 A2999 RMK A01 T02560205  RH  074%=      5-min Rain = 0
KMC1 190745Z 14006KT 26/20 A2999 RMK A01 T02550204  RH  074%=      5-min Rain = 0
KMC1 190746Z 14008KT 26/21 A2999 RMK A01 T02550205  RH  074%=      5-min Rain = 0
KMC1 190747Z 16009G14KT 25/20 A2999 RMK A01 T02540204  RH  074%=      5-min Rain = 0
KMC1 190748Z 15007G12KT 25/20 A2999 RMK A01 T02540204  RH  074%=      5-min Rain = 0
KMC1 190749Z 16009G14KT 25/20 A2999 RMK A01 T02540204  RH  074%=      5-min Rain = 0
KMC1 190750Z 17014G20KT 25/20 A2999 RMK A01 T02540204  RH  074%=      5-min Rain = 0
KMC1 190751Z 15011KT 26/20 A2999 RMK A01 T02550204  RH  073%=      5-min Rain = 0
KMC1 190752Z 15008KT 26/20 A2999 RMK A01 T02550203  RH  073%=      5-min Rain = 0
KMC1 190753Z 16006KT 26/20 A2999 RMK A01 T02550203  RH  073%=      5-min Rain = 0
KMC1 190754Z 15006KT 26/20 A2999 RMK A01 T02550204  RH  073%=      5-min Rain = 0
KMC1 190755Z 16007KT 25/20 A2999 RMK A01 T02540203  RH  074%=      5-min Rain = 0
KMC1 190756Z 17009G14KT 25/20 A2999 RMK A01 T02540204  RH  074%=      5-min Rain = 0
KMC1 190757Z 15008KT 25/20 A2999 RMK A01 T02530203  RH  074%=      5-min Rain = 0
KMC1 190758Z 15008G13KT 25/20 A2999 RMK A01 T02530203  RH  074%=      5-min Rain = 0
KMC1 190759Z 16007KT 25/20 A2999 RMK A01 T02530204  RH  074%=      5-min Rain = 0
KMC1 190800Z 15008KT 25/20 A2999 RMK A01 T02530204  RH  074%=      5-min Rain = 0
KMC1 190801Z 16008G13KT 25/20 A2999 RMK A01 T02520203  RH  074%=      5-min Rain = 0
KMC1 190802Z 15008KT 25/20 A2999 RMK A01 T02520203  RH  074%=      5-min Rain = 0
KMC1 190803Z 16008KT 25/20 A2999 RMK A01 T02520203  RH  074%=      5-min Rain = 0
KMC1 190804Z 15006KT 25/20 A2999 RMK A01 T02520203  RH  074%=      5-min Rain = 0
KMC1 190805Z 16008KT 25/20 A2999 RMK A01 T02520203  RH  075%=      5-min Rain = 0
KMC1 190806Z 17007G14KT 25/20 A2999 RMK A01 T02510203  RH  075%=      5-min Rain = 0
KMC1 190807Z 16011KT 25/20 A2999 RMK A01 T02510203  RH  075%=      5-min Rain = 0
KMC1 190808Z 15009G14KT 25/20 A2999 RMK A01 T02520203  RH  074%=      5-min Rain = 0
KMC1 190809Z 15010KT 25/20 A2999 RMK A01 T02520203  RH  074%=      5-min Rain = 0
KMC1 190810Z 16007G13KT 25/20 A2999 RMK A01 T02510203  RH  074%=      5-min Rain = 0
KMC1 190811Z 15007KT 25/20 A2999 RMK A01 T02520203  RH  074%=      5-min Rain = 0
KMC1 190812Z 15010G15KT 25/20 A2999 RMK A01 T02520203  RH  074%=      5-min Rain = 0
KMC1 190813Z 16010G15KT 25/20 A2999 RMK A01 T02510203  RH  075%=      5-min Rain = 0
KMC1 190814Z 16012G17KT 25/20 A2999 RMK A01 T02510203  RH  075%=      5-min Rain = 0
KMC1 190815Z 15010KT 25/20 A2999 RMK A01 T02510203  RH  075%=      5-min Rain = 0
KMC1 190816Z 16011KT 25/20 A2999 RMK A01 T02510203  RH  074%=      5-min Rain = 0
KMC1 190817Z 16010KT 25/20 A2999 RMK A01 T02510202  RH  074%=      5-min Rain = 0
KMC1 190818Z 16006KT 25/20 A2999 RMK A01 T02510202  RH  074%=      5-min Rain = 0
KMC1 190819Z 16008KT 25/20 A2999 RMK A01 T02510203  RH  074%=      5-min Rain = 0
KMC1 190820Z 16010KT 25/20 A2999 RMK A01 T02510202  RH  075%=      5-min Rain = 0
KMC1 190821Z 16010KT 25/20 A2999 RMK A01 T02510203  RH  075%=      5-min Rain = 0
KMC1 190822Z 17008KT 25/20 A2999 RMK A01 T02500202  RH  075%=      5-min Rain = 0
KMC1 190823Z 15007KT 25/20 A2999 RMK A01 T02500202  RH  075%=      5-min Rain = 0
KMC1 190824Z 15007KT 25/20 A2999 RMK A01 T02500202  RH  075%=      5-min Rain = 0
KMC1 190825Z 15006KT 25/20 A2999 RMK A01 T02500202  RH  075%=      5-min Rain = 0
KMC1 190826Z 14006KT 25/20 A2999 RMK A01 T02490202  RH  075%=      5-min Rain = 0
KMC1 190827Z 16006G12KT 25/20 A2999 RMK A01 T02490202  RH  075%=      5-min Rain = 0
KMC1 190828Z 14008G13KT 25/20 A2999 RMK A01 T02490202  RH  075%=      5-min Rain = 0
KMC1 190829Z 15006KT 25/20 A2999 RMK A01 T02490202  RH  075%=      5-min Rain = 0
KMC1 190830Z 15006KT 25/20 A2999 RMK A01 T02480202  RH  076%=      5-min Rain = 0
KMC1 190831Z 15006G11KT 25/20 A2999 RMK A01 T02480202  RH  076%=      5-min Rain = 0
KMC1 190832Z 16007KT 25/20 A2999 RMK A01 T02480202  RH  076%=      5-min Rain = 0
KMC1 190833Z 15007G12KT 25/20 A2999 RMK A01 T02480202  RH  076%=      5-min Rain = 0
KMC1 190834Z 17011KT 25/20 A2999 RMK A01 T02480203  RH  076%=      5-min Rain = 0
KMC1 190835Z 16007KT 25/20 A2999 RMK A01 T02480202  RH  076%=      5-min Rain = 0
KMC1 190836Z 16007KT 25/20 A2999 RMK A01 T02480202  RH  076%=      5-min Rain = 0
KMC1 190837Z 16005G10KT 25/20 A2998 RMK A01 T02480202  RH  076%=      5-min Rain = 0
KMC1 190838Z 16007KT 25/20 A2998 RMK A01 T02470202  RH  076%=      5-min Rain = 0
KMC1 190839Z 14007KT 25/20 A2998 RMK A01 T02470202  RH  076%=      5-min Rain = 0
KMC1 190840Z 16007KT 25/20 A2998 RMK A01 T02470202  RH  076%=      5-min Rain = 0
KMC1 190841Z 16008KT 25/20 A2998 RMK A01 T02470202  RH  076%=      5-min Rain = 0
KMC1 190842Z 16009KT 25/20 A2998 RMK A01 T02470202  RH  076%=      5-min Rain = 0
KMC1 190843Z 15007KT 25/20 A2998 RMK A01 T02470202  RH  076%=      5-min Rain = 0
KMC1 190844Z 15008KT 25/20 A2998 RMK A01 T02470202  RH  076%=      5-min Rain = 0
KMC1 190845Z 16009KT 25/20 A2998 RMK A01 T02470202  RH  076%=      5-min Rain = 0
KMC1 190846Z 16010G15KT 25/20 A2998 RMK A01 T02460202  RH  076%=      5-min Rain = 0
KMC1 190847Z 16008G13KT 25/20 A2998 RMK A01 T02460202  RH  076%=      5-min Rain = 0
KMC1 190848Z 16008KT 25/20 A2998 RMK A01 T02460202  RH  076%=      5-min Rain = 0
KMC1 190849Z 16010KT 25/20 A2998 RMK A01 T02460202  RH  076%=      5-min Rain = 0
KMC1 190850Z 16010KT 25/20 A2998 RMK A01 T02460202  RH  076%=      5-min Rain = 0
KMC1 190851Z 16007G12KT 25/20 A2998 RMK A01 T02460202  RH  076%=      5-min Rain = 0
KMC1 190852Z 16009G14KT 25/20 A2998 RMK A01 T02460202  RH  076%=      5-min Rain = 0
KMC1 190853Z 15008G13KT 25/20 A2998 RMK A01 T02450201  RH  076%=      5-min Rain = 0
KMC1 190854Z 15010KT 25/20 A2998 RMK A01 T02450202  RH  077%=      5-min Rain = 0
KMC1 190855Z 17006G12KT 25/20 A2998 RMK A01 T02450202  RH  077%=      5-min Rain = 0
KMC1 190856Z 15007KT 25/20 A2998 RMK A01 T02450201  RH  077%=      5-min Rain = 0
KMC1 190857Z 16007KT 24/20 A2998 RMK A01 T02440201  RH  077%=      5-min Rain = 0
KMC1 190858Z 15006KT 24/20 A2998 RMK A01 T02440201  RH  077%=      5-min Rain = 0
KMC1 190859Z 15008G13KT 24/20 A2998 RMK A01 T02440201  RH  077%=      5-min Rain = 0
KMC1 190900Z 16009KT 24/20 A2998 RMK A01 T02440202  RH  077%=      5-min Rain = 0
KMC1 190901Z 17007KT 24/20 A2998 RMK A01 T02440202  RH  077%=      5-min Rain = 0
KMC1 190902Z 16009KT 24/20 A2998 RMK A01 T02440201  RH  077%=      5-min Rain = 0
KMC1 190903Z 16010KT 24/20 A2998 RMK A01 T02440201  RH  077%=      5-min Rain = 0
KMC1 190904Z 17008KT 24/20 A2998 RMK A01 T02430201  RH  077%=      5-min Rain = 0
KMC1 190905Z 15004KT 24/20 A2998 RMK A01 T02430201  RH  077%=      5-min Rain = 0
KMC1 190906Z 15006KT 24/20 A2998 RMK A01 T02430201  RH  077%=      5-min Rain = 0
KMC1 190907Z 15009KT 24/20 A2998 RMK A01 T02420201  RH  078%=      5-min Rain = 0
KMC1 190908Z 16010KT 24/20 A2998 RMK A01 T02420201  RH  078%=      5-min Rain = 0
KMC1 190909Z 15008KT 24/20 A2998 RMK A01 T02430201  RH  078%=      5-min Rain = 0
KMC1 190910Z 16006KT 24/20 A2998 RMK A01 T02430201  RH  078%=      5-min Rain = 0
KMC1 190911Z 15006G11KT 24/20 A2998 RMK A01 T02420201  RH  078%=      5-min Rain = 0
KMC1 190912Z 15007KT 24/20 A2998 RMK A01 T02420201  RH  078%=      5-min Rain = 0
KMC1 190913Z 15006KT 24/20 A2998 RMK A01 T02420201  RH  078%=      5-min Rain = 0
KMC1 190914Z 15007KT 24/20 A2998 RMK A01 T02420201  RH  078%=      5-min Rain = 0
KMC1 190915Z 16007KT 24/20 A2998 RMK A01 T02410201  RH  078%=      5-min Rain = 0
KMC1 190916Z 16006KT 24/20 A2998 RMK A01 T02410201  RH  078%=      5-min Rain = 0
KMC1 190917Z 16006KT 24/20 A2998 RMK A01 T02410201  RH  078%=      5-min Rain = 0
KMC1 190918Z 17006KT 24/20 A2998 RMK A01 T02400201  RH  078%=      5-min Rain = 0
KMC1 190919Z 15007KT 24/20 A2998 RMK A01 T02400201  RH  079%=      5-min Rain = 0
KMC1 190920Z 16006KT 24/20 A2998 RMK A01 T02400201  RH  079%=      5-min Rain = 0
KMC1 190921Z 16006G11KT 24/20 A2998 RMK A01 T02400201  RH  079%=      5-min Rain = 0
KMC1 190922Z 17008KT 24/20 A2998 RMK A01 T02400201  RH  079%=      5-min Rain = 0
KMC1 190923Z 16006KT 24/20 A2998 RMK A01 T02400201  RH  079%=      5-min Rain = 0
KMC1 190924Z 17007KT 24/20 A2998 RMK A01 T02400201  RH  079%=      5-min Rain = 0
KMC1 190925Z 16008KT 24/20 A2998 RMK A01 T02400201  RH  079%=      5-min Rain = 0
KMC1 190926Z 15005KT 24/20 A2999 RMK A01 T02400201  RH  079%=      5-min Rain = 0
KMC1 190927Z 17008G13KT 24/20 A2999 RMK A01 T02390201  RH  079%=      5-min Rain = 0
KMC1 190928Z 16005KT 24/20 A2999 RMK A01 T02390201  RH  079%=      5-min Rain = 0
KMC1 190929Z 16006KT 24/20 A2999 RMK A01 T02390201  RH  079%=      5-min Rain = 0
KMC1 190930Z 16009KT 24/20 A2999 RMK A01 T02390201  RH  079%=      5-min Rain = 0
KMC1 190931Z 17008KT 24/20 A2999 RMK A01 T02390201  RH  079%=      5-min Rain = 0
KMC1 190932Z 16008KT 24/20 A2999 RMK A01 T02390201  RH  079%=      5-min Rain = 0
KMC1 190933Z 15004KT 24/20 A2999 RMK A01 T02390201  RH  079%=      5-min Rain = 0
KMC1 190934Z 16006KT 24/20 A2999 RMK A01 T02390201  RH  079%=      5-min Rain = 0
KMC1 190935Z 16008KT 24/20 A2999 RMK A01 T02380201  RH  080%=      5-min Rain = 0
KMC1 190936Z 15007KT 24/20 A2999 RMK A01 T02380201  RH  080%=      5-min Rain = 0
KMC1 190937Z 16006KT 24/20 A2999 RMK A01 T02380201  RH  080%=      5-min Rain = 0
KMC1 190938Z 15006KT 24/20 A2999 RMK A01 T02380201  RH  080%=      5-min Rain = 0
KMC1 190939Z 16006KT 24/20 A2999 RMK A01 T02380201  RH  080%=      5-min Rain = 0
KMC1 190940Z 16005G10KT 24/20 A2999 RMK A01 T02380201  RH  080%=      5-min Rain = 0
KMC1 190941Z 16006KT 24/20 A2999 RMK A01 T02370201  RH  080%=      5-min Rain = 0
KMC1 190942Z 16006KT 24/20 A2999 RMK A01 T02370201  RH  080%=      5-min Rain = 0
KMC1 190943Z 15005KT 24/20 A2999 RMK A01 T02370201  RH  080%=      5-min Rain = 0
KMC1 190944Z 16006KT 24/20 A2999 RMK A01 T02360201  RH  080%=      5-min Rain = 0
KMC1 190945Z 16005KT 24/20 A2999 RMK A01 T02360201  RH  081%=      5-min Rain = 0
KMC1 190946Z 15005KT 24/20 A2999 RMK A01 T02360201  RH  081%=      5-min Rain = 0
KMC1 190947Z 16005KT 24/20 A2999 RMK A01 T02360201  RH  081%=      5-min Rain = 0
KMC1 190948Z 15006KT 24/20 A2999 RMK A01 T02360201  RH  081%=      5-min Rain = 0
KMC1 190949Z 16007KT 24/20 A2999 RMK A01 T02360201  RH  081%=      5-min Rain = 0
KMC1 190950Z 15005KT 24/20 A2999 RMK A01 T02350201  RH  081%=      5-min Rain = 0
KMC1 190951Z 16006KT 24/20 A2999 RMK A01 T02360201  RH  081%=      5-min Rain = 0
KMC1 190952Z 15004KT 24/20 A2999 RMK A01 T02360201  RH  081%=      5-min Rain = 0
KMC1 190953Z 16007KT 24/20 A2999 RMK A01 T02350201  RH  081%=      5-min Rain = 0
KMC1 190954Z 15006KT 24/20 A2999 RMK A01 T02350201  RH  081%=      5-min Rain = 0
KMC1 190955Z 15005KT 24/20 A2999 RMK A01 T02350201  RH  081%=      5-min Rain = 0
KMC1 190956Z 16005KT 24/20 A2998 RMK A01 T02350201  RH  081%=      5-min Rain = 0
KMC1 190957Z 15006KT 24/20 A2998 RMK A01 T02350201  RH  081%=      5-min Rain = 0
KMC1 190958Z 16006KT 24/20 A2998 RMK A01 T02350201  RH  081%=      5-min Rain = 0
KMC1 190959Z 15005KT 23/20 A2998 RMK A01 T02340201  RH  081%=      5-min Rain = 0
KMC1 191000Z 17006KT 23/20 A2999 RMK A01 T02340201  RH  081%=      5-min Rain = 0
KMC1 191001Z 16005KT 23/20 A2999 RMK A01 T02340201  RH  082%=      5-min Rain = 0
KMC1 191002Z 15004KT 23/20 A2999 RMK A01 T02340201  RH  082%=      5-min Rain = 0
KMC1 191003Z 14006KT 23/20 A2999 RMK A01 T02330200  RH  082%=      5-min Rain = 0
KMC1 191004Z 16006KT 23/20 A2999 RMK A01 T02330201  RH  082%=      5-min Rain = 0
KMC1 191005Z 15007KT 23/20 A2999 RMK A01 T02330201  RH  082%=      5-min Rain = 0
KMC1 191006Z 16008KT 23/20 A2999 RMK A01 T02330200  RH  082%=      5-min Rain = 0
KMC1 191007Z 16008KT 23/20 A2999 RMK A01 T02330200  RH  082%=      5-min Rain = 0
KMC1 191008Z 14005KT 23/20 A2999 RMK A01 T02340200  RH  081%=      5-min Rain = 0
KMC1 191009Z 16008KT 23/20 A2999 RMK A01 T02340200  RH  081%=      5-min Rain = 0
KMC1 191010Z 15005G10KT 23/20 A2999 RMK A01 T02340200  RH  081%=      5-min Rain = 0
KMC1 191011Z 15007G12KT 23/20 A2999 RMK A01 T02340200  RH  081%=      5-min Rain = 0
KMC1 191012Z 15007G13KT 23/20 A2999 RMK A01 T02340200  RH  082%=      5-min Rain = 0
KMC1 191013Z 16007KT 23/20 A2999 RMK A01 T02330200  RH  082%=      5-min Rain = 0
KMC1 191014Z 15005KT 23/20 A2999 RMK A01 T02330200  RH  082%=      5-min Rain = 0
KMC1 191015Z 16007G12KT 23/20 A2999 RMK A01 T02330200  RH  082%=      5-min Rain = 0
KMC1 191016Z 16010KT 23/20 A2999 RMK A01 T02330200  RH  082%=      5-min Rain = 0
KMC1 191017Z 15007G12KT 23/20 A2999 RMK A01 T02330200  RH  082%=      5-min Rain = 0
KMC1 191018Z 16008G13KT 23/20 A2999 RMK A01 T02330200  RH  082%=      5-min Rain = 0
KMC1 191019Z 16008KT 23/20 A2998 RMK A01 T02330200  RH  082%=      5-min Rain = 0
KMC1 191020Z 15005G11KT 23/20 A2999 RMK A01 T02330200  RH  082%=      5-min Rain = 0
KMC1 191021Z 17008KT 23/20 A2999 RMK A01 T02330200  RH  082%=      5-min Rain = 0
KMC1 191022Z 17008KT 23/20 A2999 RMK A01 T02330200  RH  082%=      5-min Rain = 0
KMC1 191023Z 16010G16KT 23/20 A2999 RMK A01 T02330199  RH  082%=      5-min Rain = 0
KMC1 191024Z 16007G12KT 23/20 A2999 RMK A01 T02330199  RH  081%=      5-min Rain = 0
KMC1 191025Z 16007KT 23/20 A2999 RMK A01 T02330199  RH  081%=      5-min Rain = 0
KMC1 191026Z 16008KT 23/20 A2999 RMK A01 T02330199  RH  081%=      5-min Rain = 0
KMC1 191027Z 17008KT 23/20 A2999 RMK A01 T02320199  RH  081%=      5-min Rain = 0
KMC1 191028Z 17009KT 23/20 A2999 RMK A01 T02320199  RH  081%=      5-min Rain = 0
KMC1 191029Z 16009KT 23/20 A2999 RMK A01 T02330199  RH  081%=      5-min Rain = 0
KMC1 191030Z 16007KT 23/20 A2999 RMK A01 T02320198  RH  081%=      5-min Rain = 0
KMC1 191031Z 17005KT 23/20 A2999 RMK A01 T02320198  RH  081%=      5-min Rain = 0
KMC1 191032Z 17009KT 23/20 A2999 RMK A01 T02320198  RH  081%=      5-min Rain = 0
KMC1 191033Z 16012KT 23/20 A2999 RMK A01 T02310198  RH  082%=      5-min Rain = 0
KMC1 191034Z 16010KT 23/20 A2999 RMK A01 T02310198  RH  082%=      5-min Rain = 0
KMC1 191035Z 17009KT 23/20 A2999 RMK A01 T02320198  RH  081%=      5-min Rain = 0
KMC1 191036Z 17008KT 23/20 A2999 RMK A01 T02310198  RH  081%=      5-min Rain = 0
KMC1 191037Z 17010KT 23/20 A2999 RMK A01 T02320198  RH  081%=      5-min Rain = 0
KMC1 191038Z 17010KT 23/20 A2999 RMK A01 T02320198  RH  081%=      5-min Rain = 0
KMC1 191039Z 17007KT 23/20 A2999 RMK A01 T02320198  RH  081%=      5-min Rain = 0
KMC1 191040Z 16007KT 23/20 A2999 RMK A01 T02320198  RH  081%=      5-min Rain = 0
KMC1 191041Z 16006KT 23/20 A2999 RMK A01 T02310198  RH  081%=      5-min Rain = 0
KMC1 191042Z 16008KT 23/20 A2999 RMK A01 T02310198  RH  082%=      5-min Rain = 0
KMC1 191043Z 17006G11KT 23/20 A2999 RMK A01 T02300198  RH  082%=      5-min Rain = 0
KMC1 191044Z 17007KT 23/20 A2999 RMK A01 T02300198  RH  082%=      5-min Rain = 0
KMC1 191045Z 16008KT 23/20 A2999 RMK A01 T02300198  RH  082%=      5-min Rain = 0
KMC1 191046Z 17008KT 23/20 A2999 RMK A01 T02300198  RH  082%=      5-min Rain = 0
KMC1 191047Z 16008KT 23/20 A2999 RMK A01 T02300198  RH  082%=      5-min Rain = 0
KMC1 191048Z 16010KT 23/20 A2999 RMK A01 T02300198  RH  082%=      5-min Rain = 0
KMC1 191049Z 16007G12KT 23/20 A2999 RMK A01 T02300198  RH  082%=      5-min Rain = 0
KMC1 191050Z 16007KT 23/20 A2999 RMK A01 T02300198  RH  082%=      5-min Rain = 0
KMC1 191051Z 16009KT 23/20 A2999 RMK A01 T02300198  RH  082%=      5-min Rain = 0
KMC1 191052Z 16007KT 23/20 A2999 RMK A01 T02300197  RH  082%=      5-min Rain = 0
KMC1 191053Z 17007KT 23/20 A2999 RMK A01 T02300198  RH  082%=      5-min Rain = 0
KMC1 191054Z 15005KT 23/20 A2999 RMK A01 T02290198  RH  082%=      5-min Rain = 0
KMC1 191055Z 15006KT 23/20 A2999 RMK A01 T02290197  RH  083%=      5-min Rain = 0
KMC1 191056Z 17007KT 23/20 A2999 RMK A01 T02280198  RH  083%=      5-min Rain = 0
KMC1 191057Z 17007KT 23/20 A2999 RMK A01 T02280198  RH  083%=      5-min Rain = 0
KMC1 191058Z 17007KT 23/20 A2999 RMK A01 T02280197  RH  083%=      5-min Rain = 0
KMC1 191059Z 17007KT 23/20 A2999 RMK A01 T02280198  RH  083%=      5-min Rain = 0
KMC1 191100Z 16006KT 23/20 A2999 RMK A01 T02280197  RH  083%=      5-min Rain = 0
KMC1 191101Z 16008KT 23/20 A2999 RMK A01 T02280197  RH  083%=      5-min Rain = 0
KMC1 191102Z 18008G13KT 23/20 A2999 RMK A01 T02280198  RH  083%=      5-min Rain = 0
KMC1 191103Z 16007G13KT 23/20 A2999 RMK A01 T02280197  RH  083%=      5-min Rain = 0
KMC1 191104Z 16007G13KT 23/20 A2999 RMK A01 T02280197  RH  083%=      5-min Rain = 0
KMC1 191105Z 16007G12KT 23/20 A2999 RMK A01 T02280197  RH  083%=      5-min Rain = 0
KMC1 191106Z 16007KT 23/20 A2999 RMK A01 T02270197  RH  083%=      5-min Rain = 0
KMC1 191107Z 16007KT 23/20 A2999 RMK A01 T02270198  RH  083%=      5-min Rain = 0
KMC1 191108Z 16007G13KT 23/20 A2999 RMK A01 T02270198  RH  083%=      5-min Rain = 0
KMC1 191109Z 16006KT 23/20 A2999 RMK A01 T02270198  RH  083%=      5-min Rain = 0
KMC1 191110Z 16007KT 23/20 A2999 RMK A01 T02270197  RH  084%=      5-min Rain = 0
KMC1 191111Z 16008KT 23/20 A2999 RMK A01 T02260198  RH  084%=      5-min Rain = 0
KMC1 191112Z 17008G13KT 23/20 A2999 RMK A01 T02260198  RH  084%=      5-min Rain = 0
KMC1 191113Z 16007KT 23/20 A2999 RMK A01 T02260198  RH  084%=      5-min Rain = 0
KMC1 191114Z 16005G10KT 23/20 A30 RMK A01 T02260198  RH  084%=      5-min Rain = 0
KMC1 191115Z 16007KT 23/20 A30 RMK A01 T02260198  RH  084%=      5-min Rain = 0
KMC1 191116Z 16009KT 23/20 A30 RMK A01 T02260198  RH  084%=      5-min Rain = 0
KMC1 191117Z 16006G11KT 23/20 A30 RMK A01 T02260198  RH  084%=      5-min Rain = 0
KMC1 191118Z 17007KT 23/20 A30 RMK A01 T02260198  RH  085%=      5-min Rain = 0
KMC1 191119Z 15004KT 23/20 A30 RMK A01 T02260198  RH  084%=      5-min Rain = 0
KMC1 191120Z 16006KT 23/20 A30 RMK A01 T02250198  RH  085%=      5-min Rain = 0
KMC1 191121Z 16006KT 23/20 A30 RMK A01 T02250198  RH  085%=      5-min Rain = 0
KMC1 191122Z 17005KT 23/20 A30 RMK A01 T02250198  RH  085%=      5-min Rain = 0
KMC1 191123Z 16005KT 22/20 A30 RMK A01 T02240198  RH  085%=      5-min Rain = 0
KMC1 191124Z 16007KT 22/20 A30 RMK A01 T02240198  RH  085%=      5-min Rain = 0
KMC1 191125Z 16006KT 22/20 A30 RMK A01 T02240198  RH  085%=      5-min Rain = 0
KMC1 191126Z 15004KT 22/20 A30 RMK A01 T02240198  RH  085%=      5-min Rain = 0
KMC1 191127Z 16005KT 22/20 A30 RMK A01 T02240198  RH  085%=      5-min Rain = 0
KMC1 191128Z 15005KT 22/20 A30 RMK A01 T02230198  RH  086%=      5-min Rain = 0
KMC1 191129Z 16004KT 22/20 A30 RMK A01 T02230198  RH  086%=      5-min Rain = 0
KMC1 191130Z 15005KT 22/20 A30 RMK A01 T02230198  RH  086%=      5-min Rain = 0
KMC1 191131Z 16005KT 22/20 A30 RMK A01 T02230198  RH  086%=      5-min Rain = 0
KMC1 191132Z 17007KT 22/20 A30 RMK A01 T02220198  RH  086%=      5-min Rain = 0
KMC1 191133Z 16007KT 22/20 A30 RMK A01 T02230199  RH  086%=      5-min Rain = 0
KMC1 191134Z 15005KT 22/20 A30 RMK A01 T02220198  RH  086%=      5-min Rain = 0
KMC1 191135Z 16005KT 22/20 A30 RMK A01 T02220198  RH  086%=      5-min Rain = 0
KMC1 191136Z 16006KT 22/20 A30 RMK A01 T02220198  RH  086%=      5-min Rain = 0
KMC1 191137Z 15006KT 22/20 A30 RMK A01 T02220199  RH  086%=      5-min Rain = 0
KMC1 191138Z 15006KT 22/20 A30 RMK A01 T02220199  RH  086%=      5-min Rain = 0
KMC1 191139Z 16007KT 22/20 A30 RMK A01 T02220198  RH  087%=      5-min Rain = 0
KMC1 191140Z 15006KT 22/20 A30 RMK A01 T02220199  RH  087%=      5-min Rain = 0
KMC1 191141Z 15005KT 22/20 A30 RMK A01 T02220199  RH  087%=      5-min Rain = 0
KMC1 191142Z 16006KT 22/20 A30 RMK A01 T02210199  RH  087%=      5-min Rain = 0
KMC1 191143Z 15007KT 22/20 A30 RMK A01 T02210199  RH  087%=      5-min Rain = 0
KMC1 191144Z 16006KT 22/20 A30 RMK A01 T02210199  RH  087%=      5-min Rain = 0
KMC1 191145Z 16006KT 22/20 A30 RMK A01 T02210199  RH  087%=      5-min Rain = 0
KMC1 191146Z 16006KT 22/20 A30 RMK A01 T02210199  RH  087%=      5-min Rain = 0
KMC1 191147Z 16007KT 22/20 A30 RMK A01 T02210199  RH  087%=      5-min Rain = 0
KMC1 191148Z 16006KT 22/20 A30 RMK A01 T02210199  RH  087%=      5-min Rain = 0
KMC1 191149Z 16006KT 22/20 A30 RMK A01 T02210199  RH  088%=      5-min Rain = 0
KMC1 191150Z 16005KT 22/20 A30 RMK A01 T02200199  RH  088%=      5-min Rain = 0
KMC1 191151Z 16008KT 22/20 A30 RMK A01 T02210199  RH  088%=      5-min Rain = 0
KMC1 191152Z 17007KT 22/20 A30 RMK A01 T02210200  RH  088%=      5-min Rain = 0
KMC1 191153Z 16006KT 22/20 A30 RMK A01 T02200199  RH  088%=      5-min Rain = 0
KMC1 191154Z 17009KT 22/20 A30 RMK A01 T02210200  RH  088%=      5-min Rain = 0
KMC1 191155Z 17007KT 22/20 A3001 RMK A01 T02210200  RH  088%=      5-min Rain = 0
KMC1 191156Z 16006KT 22/20 A3001 RMK A01 T02200200  RH  088%=      5-min Rain = 0
KMC1 191157Z 17005KT 22/20 A3001 RMK A01 T02200200  RH  088%=      5-min Rain = 0
KMC1 191158Z 16005KT 22/20 A3001 RMK A01 T02200200  RH  088%=      5-min Rain = 0
KMC1 191159Z 17006KT 22/20 A3001 RMK A01 T02200200  RH  088%=      5-min Rain = 0
KMC1 191200Z 16007KT 22/20 A3001 RMK A01 T02200200  RH  088%=      5-min Rain = 0
KMC1 191201Z 16007KT 22/20 A3001 RMK A01 T02200200  RH  088%=      5-min Rain = 0
KMC1 191202Z 16007KT 22/20 A3001 RMK A01 T02200200  RH  088%=      5-min Rain = 0
KMC1 191203Z 17008KT 22/20 A3001 RMK A01 T02200200  RH  088%=      5-min Rain = 0
KMC1 191204Z 16005KT 22/20 A3001 RMK A01 T02200200  RH  088%=      5-min Rain = 0
KMC1 191205Z 17006KT 22/20 A3001 RMK A01 T02200200  RH  088%=      5-min Rain = 0
KMC1 191206Z 17007G12KT 22/20 A3001 RMK A01 T02200200  RH  088%=      5-min Rain = 0
KMC1 191207Z 16008KT 22/20 A3001 RMK A01 T02200200  RH  088%=      5-min Rain = 0
KMC1 191208Z 17007KT 22/20 A3001 RMK A01 T02200200  RH  088%=      5-min Rain = 0
KMC1 191209Z 16005KT 22/20 A3001 RMK A01 T02200200  RH  088%=      5-min Rain = 0
KMC1 191210Z 17007KT 22/20 A3001 RMK A01 T02200200  RH  088%=      5-min Rain = 0
KMC1 191211Z 16006KT 22/20 A3001 RMK A01 T02200200  RH  088%=      5-min Rain = 0
KMC1 191212Z 17007KT 22/20 A3001 RMK A01 T02200200  RH  088%=      5-min Rain = 0
KMC1 191213Z 16007KT 22/20 A3001 RMK A01 T02200200  RH  088%=      5-min Rain = 0
KMC1 191214Z 16005KT 22/20 A3001 RMK A01 T02200200  RH  088%=      5-min Rain = 0
KMC1 191215Z 16007G12KT 22/20 A3001 RMK A01 T02200200  RH  088%=      5-min Rain = 0
KMC1 191216Z 16007KT 22/20 A3001 RMK A01 T02200200  RH  089%=      5-min Rain = 0
KMC1 191217Z 16007KT 22/20 A3001 RMK A01 T02200201  RH  089%=      5-min Rain = 0
KMC1 191218Z 15009KT 22/20 A3001 RMK A01 T02200200  RH  089%=      5-min Rain = 0
KMC1 191219Z 16008KT 22/20 A3001 RMK A01 T02200200  RH  088%=      5-min Rain = 0
KMC1 191220Z 16008G13KT 22/20 A3001 RMK A01 T02210201  RH  088%=      5-min Rain = 0
KMC1 191221Z 15005KT 22/20 A3001 RMK A01 T02200200  RH  088%=      5-min Rain = 0
KMC1 191222Z 15005KT 22/20 A3001 RMK A01 T02210201  RH  088%=      5-min Rain = 0
KMC1 191223Z 15007KT 22/20 A3001 RMK A01 T02210201  RH  088%=      5-min Rain = 0
KMC1 191224Z 16007KT 22/20 A3001 RMK A01 T02210201  RH  089%=      5-min Rain = 0
KMC1 191225Z 16005KT 22/20 A3001 RMK A01 T02210201  RH  089%=      5-min Rain = 0
KMC1 191226Z 16006KT 22/20 A3001 RMK A01 T02210201  RH  089%=      5-min Rain = 0
KMC1 191227Z 17006KT 22/20 A3001 RMK A01 T02210201  RH  089%=      5-min Rain = 0
KMC1 191228Z 17009KT 22/20 A3001 RMK A01 T02210201  RH  088%=      5-min Rain = 0
KMC1 191229Z 16006KT 22/20 A3001 RMK A01 T02210201  RH  088%=      5-min Rain = 0
KMC1 191230Z 16006KT 22/20 A3001 RMK A01 T02210201  RH  088%=      5-min Rain = 0
KMC1 191231Z 16004KT 22/20 A3001 RMK A01 T02210201  RH  088%=      5-min Rain = 0
KMC1 191232Z 15007KT 22/20 A3001 RMK A01 T02210201  RH  088%=      5-min Rain = 0
KMC1 191233Z 16006G11KT 22/20 A3001 RMK A01 T02210201  RH  088%=      5-min Rain = 0
KMC1 191234Z 17005KT 22/20 A3001 RMK A01 T02210201  RH  088%=      5-min Rain = 0
KMC1 191235Z 16009KT 22/20 A3001 RMK A01 T02210201  RH  088%=      5-min Rain = 0
KMC1 191236Z 16006KT 22/20 A3001 RMK A01 T02210201  RH  088%=      5-min Rain = 0
KMC1 191237Z 15004KT 22/20 A3001 RMK A01 T02210201  RH  088%=      5-min Rain = 0
KMC1 191238Z 16006KT 22/20 A3001 RMK A01 T02220201  RH  088%=      5-min Rain = 0
KMC1 191239Z 16008KT 22/20 A3001 RMK A01 T02220201  RH  088%=      5-min Rain = 0
KMC1 191240Z 16008KT 22/20 A3001 RMK A01 T02220200  RH  088%=      5-min Rain = 0
KMC1 191241Z 16008KT 22/20 A3001 RMK A01 T02220201  RH  087%=      5-min Rain = 0
KMC1 191242Z 16008KT 22/20 A3001 RMK A01 T02230201  RH  087%=      5-min Rain = 0
KMC1 191243Z 15008KT 22/20 A3001 RMK A01 T02230201  RH  087%=      5-min Rain = 0
KMC1 191244Z 16006KT 22/20 A3001 RMK A01 T02230201  RH  087%=      5-min Rain = 0
KMC1 191245Z 16008KT 22/20 A3001 RMK A01 T02230201  RH  087%=      5-min Rain = 0
KMC1 191246Z 17007KT 22/20 A3001 RMK A01 T02230201  RH  087%=      5-min Rain = 0
KMC1 191247Z 16006KT 22/20 A3001 RMK A01 T02240201  RH  087%=      5-min Rain = 0
KMC1 191248Z 17007KT 22/20 A3001 RMK A01 T02240200  RH  087%=      5-min Rain = 0
KMC1 191249Z 16006KT 22/20 A3001 RMK A01 T02240201  RH  087%=      5-min Rain = 0
KMC1 191250Z 17005KT 22/20 A3002 RMK A01 T02240201  RH  087%=      5-min Rain = 0
KMC1 191251Z 16007G12KT 22/20 A3002 RMK A01 T02240201  RH  086%=      5-min Rain = 0
KMC1 191252Z 16008KT 23/20 A3002 RMK A01 T02250200  RH  086%=      5-min Rain = 0
KMC1 191253Z 16009KT 23/20 A3002 RMK A01 T02250200  RH  086%=      5-min Rain = 0
KMC1 191254Z 16008KT 23/20 A3002 RMK A01 T02250200  RH  086%=      5-min Rain = 0
KMC1 191255Z 15005KT 23/20 A3002 RMK A01 T02260200  RH  086%=      5-min Rain = 0
KMC1 191256Z 16006KT 23/20 A3002 RMK A01 T02260201  RH  085%=      5-min Rain = 0
KMC1 191257Z 16007KT 23/20 A3002 RMK A01 T02270200  RH  085%=      5-min Rain = 0
KMC1 191258Z 17009KT 23/20 A3002 RMK A01 T02270200  RH  085%=      5-min Rain = 0
KMC1 191259Z 16008G15KT 23/20 A3002 RMK A01 T02270200  RH  085%=      5-min Rain = 0
KMC1 191300Z 16008KT 23/20 A3002 RMK A01 T02280200  RH  084%=      5-min Rain = 0
KMC1 191301Z 15007KT 23/20 A3002 RMK A01 T02280200  RH  084%=      5-min Rain = 0
KMC1 191302Z 16005KT 23/20 A3002 RMK A01 T02290201  RH  084%=      5-min Rain = 0
KMC1 191303Z 16008KT 23/20 A3002 RMK A01 T02290200  RH  084%=      5-min Rain = 0
KMC1 191304Z 16009G15KT 23/20 A3002 RMK A01 T02300200  RH  083%=      5-min Rain = 0
KMC1 191305Z 16008KT 23/20 A3002 RMK A01 T02300200  RH  083%=      5-min Rain = 0
KMC1 191306Z 16009KT 23/20 A3002 RMK A01 T02300200  RH  083%=      5-min Rain = 0
KMC1 191307Z 16007KT 23/20 A3002 RMK A01 T02300199  RH  083%=      5-min Rain = 0
KMC1 191308Z 16007G13KT 23/20 A3002 RMK A01 T02310200  RH  083%=      5-min Rain = 0
KMC1 191309Z 16011KT 23/20 A3002 RMK A01 T02310199  RH  082%=      5-min Rain = 0
KMC1 191310Z 15009G14KT 23/20 A3002 RMK A01 T02310200  RH  082%=      5-min Rain = 0
KMC1 191311Z 16006G11KT 23/20 A3002 RMK A01 T02310199  RH  082%=      5-min Rain = 0
KMC1 191312Z 16008KT 23/20 A3002 RMK A01 T02320200  RH  082%=      5-min Rain = 0
KMC1 191313Z 17008KT 23/20 A3002 RMK A01 T02320199  RH  082%=      5-min Rain = 0
KMC1 191314Z 17009G14KT 23/20 A3002 RMK A01 T02330200  RH  082%=      5-min Rain = 0
KMC1 191315Z 17011KT 23/20 A3002 RMK A01 T02320199  RH  082%=      5-min Rain = 0
KMC1 191316Z 18010KT 23/20 A3002 RMK A01 T02330199  RH  081%=      5-min Rain = 0
KMC1 191317Z 17007KT 23/20 A3002 RMK A01 T02330200  RH  082%=      5-min Rain = 0
KMC1 191318Z 17006G12KT 23/20 A3003 RMK A01 T02340200  RH  081%=      5-min Rain = 0
KMC1 191319Z 18010KT 24/20 A3003 RMK A01 T02350200  RH  081%=      5-min Rain = 0
KMC1 191320Z 17007KT 24/20 A3003 RMK A01 T02350200  RH  081%=      5-min Rain = 0
KMC1 191321Z 17006KT 24/20 A3003 RMK A01 T02350200  RH  081%=      5-min Rain = 0
KMC1 191322Z 18008KT 24/20 A3003 RMK A01 T02360201  RH  080%=      5-min Rain = 0
KMC1 191323Z 17008KT 24/20 A3003 RMK A01 T02360200  RH  080%=      5-min Rain = 0
KMC1 191324Z 17009KT 24/20 A3003 RMK A01 T02370200  RH  080%=      5-min Rain = 0
KMC1 191325Z 16009G14KT 24/20 A3003 RMK A01 T02360199  RH  080%=      5-min Rain = 0
KMC1 191326Z 18006KT 24/20 A3003 RMK A01 T02370200  RH  080%=      5-min Rain = 0
KMC1 191327Z 17007KT 24/20 A3003 RMK A01 T02370200  RH  080%=      5-min Rain = 0
KMC1 191328Z 16008G13KT 24/20 A3003 RMK A01 T02380200  RH  079%=      5-min Rain = 0
KMC1 191329Z 17011KT 24/20 A3003 RMK A01 T02380200  RH  079%=      5-min Rain = 0
KMC1 191330Z 17007KT 24/20 A3003 RMK A01 T02380200  RH  079%=      5-min Rain = 0
KMC1 191331Z 18007KT 24/20 A3003 RMK A01 T02390200  RH  079%=      5-min Rain = 0
KMC1 191332Z 17010KT 24/20 A3003 RMK A01 T02390200  RH  079%=      5-min Rain = 0
KMC1 191333Z 18008KT 24/20 A3003 RMK A01 T02390200  RH  079%=      5-min Rain = 0
KMC1 191334Z 17007G12KT 24/20 A3003 RMK A01 T02400200  RH  079%=      5-min Rain = 0
KMC1 191335Z 16010KT 24/20 A3003 RMK A01 T02410200  RH  078%=      5-min Rain = 0
KMC1 191336Z 16009KT 24/20 A3003 RMK A01 T02410200  RH  078%=      5-min Rain = 0
KMC1 191337Z 16007KT 24/20 A3003 RMK A01 T02410201  RH  078%=      5-min Rain = 0
KMC1 191338Z 17005KT 24/20 A3003 RMK A01 T02430201  RH  078%=      5-min Rain = 0
KMC1 191339Z 17008KT 24/20 A3003 RMK A01 T02440201  RH  077%=      5-min Rain = 0
KMC1 191340Z 16007KT 24/20 A3003 RMK A01 T02440201  RH  077%=      5-min Rain = 0
KMC1 191341Z 17009G14KT 24/20 A3003 RMK A01 T02440201  RH  077%=      5-min Rain = 0
KMC1 191342Z 16008G13KT 24/20 A3003 RMK A01 T02440201  RH  077%=      5-min Rain = 0
KMC1 191343Z 17009KT 25/20 A3003 RMK A01 T02450200  RH  076%=      5-min Rain = 0
KMC1 191344Z 16009KT 24/20 A3003 RMK A01 T02440201  RH  077%=      5-min Rain = 0
KMC1 191345Z 18007KT 24/20 A3003 RMK A01 T02440201  RH  077%=      5-min Rain = 0
KMC1 191346Z 17007KT 25/20 A3003 RMK A01 T02450201  RH  077%=      5-min Rain = 0
KMC1 191347Z 18006KT 25/20 A3003 RMK A01 T02460202  RH  077%=      5-min Rain = 0
KMC1 191348Z 17010KT 25/20 A3003 RMK A01 T02470202  RH  076%=      5-min Rain = 0
KMC1 191349Z 17007KT 25/20 A3003 RMK A01 T02480202  RH  075%=      5-min Rain = 0
KMC1 191350Z 17007KT 25/20 A3003 RMK A01 T02480202  RH  075%=      5-min Rain = 0
KMC1 191351Z 17007KT 25/20 A3003 RMK A01 T02480201  RH  075%=      5-min Rain = 0
KMC1 191352Z 18011KT 25/20 A3003 RMK A01 T02480202  RH  075%=      5-min Rain = 0
KMC1 191353Z 18009KT 25/20 A3003 RMK A01 T02480201  RH  075%=      5-min Rain = 0
KMC1 191354Z 17008KT 25/20 A3003 RMK A01 T02480201  RH  075%=      5-min Rain = 0
KMC1 191355Z 18007KT 25/20 A3003 RMK A01 T02480202  RH  076%=      5-min Rain = 0
KMC1 191356Z 16008KT 25/20 A3003 RMK A01 T02490202  RH  075%=      5-min Rain = 0
KMC1 191357Z 17007G12KT 25/20 A3003 RMK A01 T02500202  RH  075%=      5-min Rain = 0
KMC1 191358Z 16008KT 25/20 A3003 RMK A01 T02510203  RH  075%=      5-min Rain = 0
KMC1 191359Z 16008G14KT 25/20 A3003 RMK A01 T02530203  RH  074%=      5-min Rain = 0
KMC1 191400Z 17009G14KT 25/20 A3003 RMK A01 T02530202  RH  073%=      5-min Rain = 0
KMC1 191401Z 19012KT 25/20 A3003 RMK A01 T02540202  RH  073%=      5-min Rain = 0
KMC1 191402Z 18010KT 25/20 A3003 RMK A01 T02520201  RH  073%=      5-min Rain = 0
KMC1 191403Z 18008KT 25/20 A3003 RMK A01 T02510202  RH  074%=      5-min Rain = 0
KMC1 191404Z 19006KT 25/20 A3003 RMK A01 T02520203  RH  074%=      5-min Rain = 0
KMC1 191405Z 19006KT 26/20 A3003 RMK A01 T02550203  RH  073%=      5-min Rain = 0
KMC1 191406Z 19010G17KT 26/20 A3003 RMK A01 T02560203  RH  072%=      5-min Rain = 0
KMC1 191407Z 17008KT 26/20 A3003 RMK A01 T02560203  RH  072%=      5-min Rain = 0
KMC1 191408Z 17006KT 26/20 A3003 RMK A01 T02560203  RH  073%=      5-min Rain = 0
KMC1 191409Z 17012KT 26/20 A3003 RMK A01 T02560203  RH  072%=      5-min Rain = 0
KMC1 191410Z 16011G17KT 26/20 A3003 RMK A01 T02560202  RH  072%=      5-min Rain = 0
KMC1 191411Z 16010G16KT 26/20 A3003 RMK A01 T02550203  RH  073%=      5-min Rain = 0
KMC1 191412Z 17010KT 26/20 A3003 RMK A01 T02550202  RH  072%=      5-min Rain = 0
KMC1 191413Z 16010KT 26/20 A3003 RMK A01 T02550202  RH  073%=      5-min Rain = 0
KMC1 191414Z 16012KT 26/20 A3003 RMK A01 T02550202  RH  072%=      5-min Rain = 0
KMC1 191415Z 16012KT 26/20 A3003 RMK A01 T02550202  RH  073%=      5-min Rain = 0
KMC1 191416Z 17012KT 25/20 A3003 RMK A01 T02540202  RH  073%=      5-min Rain = 0
KMC1 191417Z 16010KT 25/20 A3003 RMK A01 T02540202  RH  073%=      5-min Rain = 0
KMC1 191418Z 16010KT 26/20 A3003 RMK A01 T02550203  RH  073%=      5-min Rain = 0
KMC1 191419Z 16012G17KT 26/20 A3003 RMK A01 T02570202  RH  072%=      5-min Rain = 0
KMC1 191420Z 17013KT 26/20 A3004 RMK A01 T02570203  RH  072%=      5-min Rain = 0
KMC1 191421Z 16012G18KT 26/20 A3004 RMK A01 T02570203  RH  072%=      5-min Rain = 0
KMC1 191422Z 17014G19KT 26/20 A3004 RMK A01 T02570202  RH  072%=      5-min Rain = 0
KMC1 191423Z 17008KT 26/20 A3004 RMK A01 T02570203  RH  072%=      5-min Rain = 0
KMC1 191424Z 17010KT 26/20 A3004 RMK A01 T02570203  RH  072%=      5-min Rain = 0
KMC1 191425Z 18012KT 26/20 A3003 RMK A01 T02580202  RH  071%=      5-min Rain = 0
KMC1 191426Z 16010G15KT 26/20 A3003 RMK A01 T02580202  RH  071%=      5-min Rain = 0
KMC1 191427Z 17012G17KT 26/20 A3004 RMK A01 T02580203  RH  072%=      5-min Rain = 0
KMC1 191428Z 17011KT 26/20 A3004 RMK A01 T02580203  RH  072%=      5-min Rain = 0
KMC1 191429Z 17011KT 26/20 A3004 RMK A01 T02580202  RH  072%=      5-min Rain = 0
KMC1 191430Z 17011KT 26/20 A3004 RMK A01 T02580203  RH  072%=      5-min Rain = 0
KMC1 191431Z 17011KT 26/20 A3003 RMK A01 T02590203  RH  071%=      5-min Rain = 0
KMC1 191432Z 17011G16KT 26/20 A3003 RMK A01 T02600204  RH  071%=      5-min Rain = 0
KMC1 191433Z 17011KT 26/20 A3003 RMK A01 T02610203  RH  070%=      5-min Rain = 0
KMC1 191434Z 16011G17KT 26/20 A3003 RMK A01 T02600204  RH  071%=      5-min Rain = 0
KMC1 191435Z 16009G17KT 26/20 A3003 RMK A01 T02600204  RH  071%=      5-min Rain = 0
KMC1 191436Z 16009KT 26/20 A3003 RMK A01 T02610204  RH  071%=      5-min Rain = 0
KMC1 191437Z 16009G15KT 26/20 A3003 RMK A01 T02620204  RH  070%=      5-min Rain = 0
KMC1 191438Z 16007G12KT 26/21 A3003 RMK A01 T02630205  RH  070%=      5-min Rain = 0
KMC1 191439Z 15010G15KT 27/21 A3003 RMK A01 T02660206  RH  069%=      5-min Rain = 0
KMC1 191440Z 15010KT 27/21 A3003 RMK A01 T02670205  RH  069%=      5-min Rain = 0
KMC1 191441Z 16011G16KT 27/21 A3003 RMK A01 T02670205  RH  069%=      5-min Rain = 0
KMC1 191442Z 15009G14KT 27/21 A3003 RMK A01 T02660205  RH  069%=      5-min Rain = 0
KMC1 191443Z 16010G15KT 27/20 A3003 RMK A01 T02670204  RH  068%=      5-min Rain = 0
KMC1 191444Z 16007KT 27/21 A3003 RMK A01 T02670206  RH  069%=      5-min Rain = 0
KMC1 191445Z 16011G16KT 27/21 A3003 RMK A01 T02680205  RH  068%=      5-min Rain = 0
KMC1 191446Z 17011KT 27/21 A3003 RMK A01 T02690205  RH  068%=      5-min Rain = 0
KMC1 191447Z 17013KT 27/20 A3003 RMK A01 T02680204  RH  068%=      5-min Rain = 0
KMC1 191448Z 17012G17KT 27/20 A3003 RMK A01 T02660204  RH  069%=      5-min Rain = 0
KMC1 191449Z 16011G17KT 27/20 A3003 RMK A01 T02650204  RH  069%=      5-min Rain = 0
KMC1 191450Z 17008G13KT 27/20 A3003 RMK A01 T02650204  RH  069%=      5-min Rain = 0
KMC1 191451Z 17011KT 27/21 A3003 RMK A01 T02670205  RH  069%=      5-min Rain = 0
KMC1 191452Z 18010KT 27/20 A3003 RMK A01 T02680204  RH  068%=      5-min Rain = 0
KMC1 191453Z 18009KT 27/21 A3003 RMK A01 T02680205  RH  068%=      5-min Rain = 0
KMC1 191454Z 17007G12KT 27/21 A3003 RMK A01 T02680206  RH  068%=      5-min Rain = 0
KMC1 191455Z 15009G17KT 27/21 A3003 RMK A01 T02700207  RH  069%=      5-min Rain = 0
KMC1 191456Z 16012KT 27/21 A3003 RMK A01 T02720206  RH  067%=      5-min Rain = 0
KMC1 191457Z 16010KT 27/21 A3003 RMK A01 T02720205  RH  067%=      5-min Rain = 0
KMC1 191458Z 16012KT 27/21 A3003 RMK A01 T02710205  RH  067%=      5-min Rain = 0
KMC1 191459Z 16012G17KT 27/21 A3003 RMK A01 T02700205  RH  067%=      5-min Rain = 0
KMC1 191500Z 17011KT 27/20 A3003 RMK A01 T02700204  RH  067%=      5-min Rain = 0
KMC1 191501Z 17013KT 27/20 A3003 RMK A01 T02700204  RH  067%=      5-min Rain = 0
KMC1 191502Z 18009G15KT 27/20 A3003 RMK A01 T02700203  RH  067%=      5-min Rain = 0
KMC1 191503Z 16007G12KT 27/21 A3003 RMK A01 T02710205  RH  067%=      5-min Rain = 0
KMC1 191504Z 17013G18KT 28/21 A3003 RMK A01 T02750206  RH  066%=      5-min Rain = 0
KMC1 191505Z 17009KT 28/21 A3003 RMK A01 T02750205  RH  066%=      5-min Rain = 0
KMC1 191506Z 17014G19KT 28/21 A3003 RMK A01 T02750205  RH  066%=      5-min Rain = 0
KMC1 191507Z 17013KT 27/20 A3003 RMK A01 T02740204  RH  066%=      5-min Rain = 0
KMC1 191508Z 18012G18KT 27/21 A3003 RMK A01 T02730205  RH  066%=      5-min Rain = 0
KMC1 191509Z 17014KT 27/20 A3003 RMK A01 T02730204  RH  066%=      5-min Rain = 0
KMC1 191510Z 18012G17KT 27/20 A3003 RMK A01 T02720204  RH  066%=      5-min Rain = 0
KMC1 191511Z 18012KT 27/21 A3003 RMK A01 T02720205  RH  067%=      5-min Rain = 0
KMC1 191512Z 16010G15KT 27/21 A3003 RMK A01 T02730206  RH  067%=      5-min Rain = 0
KMC1 191513Z 16010G15KT 28/21 A3003 RMK A01 T02750205  RH  066%=      5-min Rain = 0
KMC1 191514Z 18009KT 28/21 A3003 RMK A01 T02750206  RH  066%=      5-min Rain = 0
KMC1 191515Z 16011KT 28/21 A3003 RMK A01 T02750206  RH  066%=      5-min Rain = 0
KMC1 191516Z 15007KT 28/21 A3003 RMK A01 T02760207  RH  066%=      5-min Rain = 0
KMC1 191517Z 17010KT 28/21 A3003 RMK A01 T02770207  RH  066%=      5-min Rain = 0
KMC1 191518Z 16010KT 28/21 A3003 RMK A01 T02780207  RH  065%=      5-min Rain = 0
KMC1 191519Z 16010KT 28/21 A3003 RMK A01 T02780207  RH  065%=      5-min Rain = 0
KMC1 191520Z 16012KT 28/21 A3003 RMK A01 T02800207  RH  065%=      5-min Rain = 0
KMC1 191521Z 16012KT 28/21 A3003 RMK A01 T02800206  RH  064%=      5-min Rain = 0
KMC1 191522Z 15010KT 28/21 A3003 RMK A01 T02780206  RH  065%=      5-min Rain = 0
KMC1 191523Z 16010KT 28/21 A3003 RMK A01 T02780206  RH  065%=      5-min Rain = 0
KMC1 191524Z 16008G15KT 28/21 A3003 RMK A01 T02780207  RH  065%=      5-min Rain = 0
KMC1 191525Z 16009G14KT 28/21 A3003 RMK A01 T02790207  RH  065%=      5-min Rain = 0
KMC1 191526Z 17008KT 28/21 A3003 RMK A01 T02810207  RH  064%=      5-min Rain = 0
KMC1 191527Z 17012KT 28/21 A3003 RMK A01 T02820206  RH  064%=      5-min Rain = 0
KMC1 191528Z 17008G13KT 28/21 A3003 RMK A01 T02820207  RH  064%=      5-min Rain = 0
KMC1 191529Z 16010KT 28/21 A3003 RMK A01 T02840207  RH  063%=      5-min Rain = 0
KMC1 191530Z 16011KT 28/21 A3003 RMK A01 T02840207  RH  063%=      5-min Rain = 0
KMC1 191531Z 16011KT 28/21 A3003 RMK A01 T02840207  RH  063%=      5-min Rain = 0
KMC1 191532Z 16010KT 29/21 A3003 RMK A01 T02850207  RH  063%=      5-min Rain = 0
KMC1 191533Z 18010KT 29/21 A3003 RMK A01 T02850207  RH  063%=      5-min Rain = 0
KMC1 191534Z 16007KT 29/21 A3003 RMK A01 T02850208  RH  063%=      5-min Rain = 0
KMC1 191535Z 19010KT 29/21 A3003 RMK A01 T02860208  RH  063%=      5-min Rain = 0
KMC1 191536Z 18012KT 29/21 A3003 RMK A01 T02870205  RH  061%=      5-min Rain = 0
KMC1 191537Z 18010G15KT 29/21 A3003 RMK A01 T02880205  RH  061%=      5-min Rain = 0
KMC1 191538Z 18011KT 29/21 A3003 RMK A01 T02870206  RH  061%=      5-min Rain = 0
KMC1 191539Z 17007G13KT 29/21 A3003 RMK A01 T02880206  RH  061%=      5-min Rain = 0
KMC1 191540Z 16009KT 29/21 A3003 RMK A01 T02890207  RH  061%=      5-min Rain = 0
KMC1 191541Z 17010G15KT 29/21 A3003 RMK A01 T02900208  RH  061%=      5-min Rain = 0
KMC1 191542Z 16010G15KT 29/21 A3003 RMK A01 T02920208  RH  061%=      5-min Rain = 0
KMC1 191543Z 17010G16KT 29/21 A3003 RMK A01 T02930207  RH  060%=      5-min Rain = 0
KMC1 191544Z 17009KT 29/21 A3003 RMK A01 T02920208  RH  061%=      5-min Rain = 0
KMC1 191545Z 16010KT 29/21 A3003 RMK A01 T02900207  RH  061%=      5-min Rain = 0
KMC1 191546Z 17009KT 29/21 A3003 RMK A01 T02890208  RH  062%=      5-min Rain = 0
KMC1 191547Z 17013KT 29/21 A3003 RMK A01 T02880208  RH  062%=      5-min Rain = 0
KMC1 191548Z 17011G16KT 29/21 A3003 RMK A01 T02890207  RH  061%=      5-min Rain = 0
KMC1 191549Z 17011KT 29/21 A3003 RMK A01 T02880206  RH  061%=      5-min Rain = 0
KMC1 191550Z 17012KT 29/21 A3003 RMK A01 T02870206  RH  062%=      5-min Rain = 0
KMC1 191551Z 17013G18KT 29/21 A3003 RMK A01 T02870206  RH  062%=      5-min Rain = 0
KMC1 191552Z 17010KT 29/21 A3003 RMK A01 T02870206  RH  061%=      5-min Rain = 0
KMC1 191553Z 16008KT 29/21 A3003 RMK A01 T02880206  RH  061%=      5-min Rain = 0
KMC1 191554Z 17011KT 29/21 A3003 RMK A01 T02890208  RH  062%=      5-min Rain = 0
KMC1 191555Z 15011KT 29/21 A3003 RMK A01 T02890208  RH  061%=      5-min Rain = 0
KMC1 191556Z 16010KT 29/21 A3003 RMK A01 T02910208  RH  061%=      5-min Rain = 0
KMC1 191557Z 14007KT 29/21 A3003 RMK A01 T02930209  RH  061%=      5-min Rain = 0
KMC1 191558Z 16007KT 30/21 A3003 RMK A01 T02960210  RH  060%=      5-min Rain = 0
KMC1 191559Z 16006KT 30/21 A3003 RMK A01 T02990211  RH  059%=      5-min Rain = 0
KMC1 191600Z 17009KT 30/21 A3003 RMK A01 T03010212  RH  059%=      5-min Rain = 0
KMC1 191601Z 18009KT 30/21 A3003 RMK A01 T03030210  RH  058%=      5-min Rain = 0
KMC1 191602Z 19007KT 30/21 A3003 RMK A01 T03030208  RH  057%=      5-min Rain = 0
KMC1 191603Z 18006KT 30/21 A3003 RMK A01 T03020208  RH  057%=      5-min Rain = 0
KMC1 191604Z 17007KT 30/21 A3003 RMK A01 T03020209  RH  057%=      5-min Rain = 0
KMC1 191605Z 16009KT 30/21 A3003 RMK A01 T03030210  RH  057%=      5-min Rain = 0
KMC1 191606Z 17009KT 30/21 A3003 RMK A01 T03040210  RH  057%=      5-min Rain = 0
KMC1 191607Z 18007KT 30/21 A3003 RMK A01 T03030212  RH  058%=      5-min Rain = 0
KMC1 191608Z 19008KT 30/21 A3003 RMK A01 T03040211  RH  057%=      5-min Rain = 0
KMC1 191609Z 18008G13KT 31/21 A3004 RMK A01 T03060209  RH  056%=      5-min Rain = 0
KMC1 191610Z 20009G14KT 31/21 A3003 RMK A01 T03060207  RH  055%=      5-min Rain = 0
KMC1 191611Z 18012KT 31/21 A3003 RMK A01 T03050206  RH  055%=      5-min Rain = 0
KMC1 191612Z 18011KT 30/21 A3003 RMK A01 T03020205  RH  056%=      5-min Rain = 0
KMC1 191613Z 20010KT 30/21 A3003 RMK A01 T02990206  RH  057%=      5-min Rain = 0
KMC1 191614Z 18009KT 30/21 A3004 RMK A01 T02990208  RH  058%=      5-min Rain = 0
KMC1 191615Z 17012KT 30/21 A3004 RMK A01 T03020207  RH  057%=      5-min Rain = 0
KMC1 191616Z 18013KT 30/21 A3004 RMK A01 T03030207  RH  057%=      5-min Rain = 0
KMC1 191617Z 18013KT 30/21 A3004 RMK A01 T03010207  RH  057%=      5-min Rain = 0
KMC1 191618Z 17012KT 30/21 A3004 RMK A01 T03010207  RH  057%=      5-min Rain = 0
KMC1 191619Z 19008KT 30/21 A3004 RMK A01 T03020208  RH  057%=      5-min Rain = 0
KMC1 191620Z 17009G14KT 30/21 A3003 RMK A01 T03040209  RH  057%=      5-min Rain = 0
KMC1 191621Z 17011KT 31/21 A3003 RMK A01 T03060208  RH  056%=      5-min Rain = 0
KMC1 191622Z 17012G19KT 30/21 A3003 RMK A01 T03030208  RH  057%=      5-min Rain = 0
KMC1 191623Z 17010KT 30/21 A3003 RMK A01 T03010208  RH  058%=      5-min Rain = 0
KMC1 191624Z 16010KT 30/21 A3003 RMK A01 T03010208  RH  057%=      5-min Rain = 0
KMC1 191625Z 17010KT 30/21 A3003 RMK A01 T03030207  RH  056%=      5-min Rain = 0
KMC1 191626Z 15010KT 30/21 A3003 RMK A01 T03040207  RH  056%=      5-min Rain = 0
KMC1 191627Z 18012G20KT 31/21 A3003 RMK A01 T03050208  RH  056%=      5-min Rain = 0
KMC1 191628Z 17013KT 31/21 A3003 RMK A01 T03050206  RH  055%=      5-min Rain = 0
KMC1 191629Z 18011KT 30/21 A3003 RMK A01 T03020205  RH  056%=      5-min Rain = 0
KMC1 191630Z 19011G16KT 30/21 A3003 RMK A01 T03020206  RH  057%=      5-min Rain = 0
KMC1 191631Z 16008KT 30/21 A3003 RMK A01 T03010207  RH  057%=      5-min Rain = 0
KMC1 191632Z 16011KT 30/21 A3003 RMK A01 T03030210  RH  057%=      5-min Rain = 0
KMC1 191633Z 17008G13KT 31/21 A3003 RMK A01 T03050210  RH  057%=      5-min Rain = 0
KMC1 191634Z 18008KT 31/21 A3003 RMK A01 T03070211  RH  057%=      5-min Rain = 0
KMC1 191635Z 20011KT 31/21 A3003 RMK A01 T03090207  RH  055%=      5-min Rain = 0
KMC1 191636Z 19010G15KT 31/21 A3003 RMK A01 T03070206  RH  055%=      5-min Rain = 0
KMC1 191637Z 18010KT 31/21 A3003 RMK A01 T03070207  RH  055%=      5-min Rain = 0
KMC1 191638Z 18011KT 31/21 A3003 RMK A01 T03090208  RH  055%=      5-min Rain = 0
KMC1 191639Z 17008G13KT 31/21 A3003 RMK A01 T03090208  RH  055%=      5-min Rain = 0
KMC1 191640Z 18010KT 31/21 A3003 RMK A01 T03090208  RH  055%=      5-min Rain = 0
KMC1 191641Z 17012KT 31/21 A3003 RMK A01 T03080206  RH  054%=      5-min Rain = 0
KMC1 191642Z 17012KT 31/21 A3003 RMK A01 T03060207  RH  055%=      5-min Rain = 0
KMC1 191643Z 16011KT 31/21 A3003 RMK A01 T03050207  RH  056%=      5-min Rain = 0
KMC1 191644Z 15008KT 31/21 A3003 RMK A01 T03050208  RH  056%=      5-min Rain = 0
KMC1 191645Z 16013G19KT 31/21 A3003 RMK A01 T03060207  RH  056%=      5-min Rain = 0
KMC1 191646Z 17012G17KT 31/21 A3003 RMK A01 T03060206  RH  055%=      5-min Rain = 0
KMC1 191647Z 18008G13KT 31/21 A3003 RMK A01 T03070206  RH  055%=      5-min Rain = 0
KMC1 191648Z 17007KT 31/21 A3003 RMK A01 T03090208  RH  055%=      5-min Rain = 0
KMC1 191649Z 16010KT 31/21 A3003 RMK A01 T03120208  RH  054%=      5-min Rain = 0
KMC1 191650Z 16010G17KT 31/21 A3003 RMK A01 T03140208  RH  053%=      5-min Rain = 0
KMC1 191651Z 16011KT 31/21 A3003 RMK A01 T03140208  RH  053%=      5-min Rain = 0
KMC1 191652Z 18012KT 31/21 A3003 RMK A01 T03120208  RH  054%=      5-min Rain = 0
KMC1 191653Z 17011KT 31/21 A3003 RMK A01 T03100206  RH  054%=      5-min Rain = 0
KMC1 191654Z 17012KT 31/21 A3003 RMK A01 T03080206  RH  055%=      5-min Rain = 0
KMC1 191655Z 16010G16KT 31/21 A3003 RMK A01 T03080205  RH  054%=      5-min Rain = 0
KMC1 191656Z 15008G14KT 31/21 A3003 RMK A01 T03100206  RH  054%=      5-min Rain = 0
KMC1 191657Z 17009KT 31/21 A3003 RMK A01 T03130206  RH  053%=      5-min Rain = 0
KMC1 191658Z 17009KT 32/21 A3003 RMK A01 T03150207  RH  053%=      5-min Rain = 0
KMC1 191659Z 15013KT 32/21 A3003 RMK A01 T03160205  RH  052%=      5-min Rain = 0
KMC1 191700Z 15008KT 32/20 A3003 RMK A01 T03160204  RH  052%=      5-min Rain = 0
KMC1 191701Z 15014KT 32/21 A3003 RMK A01 T03150205  RH  052%=      5-min Rain = 0
KMC1 191702Z 15008KT 32/21 A3003 RMK A01 T03150206  RH  052%=      5-min Rain = 0
KMC1 191703Z 15012KT 32/21 A3003 RMK A01 T03170205  RH  051%=      5-min Rain = 0
KMC1 191704Z 16009G14KT 32/20 A3003 RMK A01 T03170203  RH  051%=      5-min Rain = 0
KMC1 191705Z 16012KT 32/20 A3003 RMK A01 T03160203  RH  051%=      5-min Rain = 0
KMC1 191706Z 15011KT 32/20 A3003 RMK A01 T03160202  RH  051%=      5-min Rain = 0
KMC1 191707Z 17008KT 32/20 A3003 RMK A01 T03150203  RH  051%=      5-min Rain = 0
KMC1 191708Z 16011KT 32/20 A3003 RMK A01 T03170203  RH  051%=      5-min Rain = 0
KMC1 191709Z 19009G14KT 32/20 A3003 RMK A01 T03180204  RH  051%=      5-min Rain = 0
KMC1 191710Z 19009KT 32/20 A3003 RMK A01 T03180204  RH  051%=      5-min Rain = 0
KMC1 191711Z 19010KT 32/20 A3003 RMK A01 T03180203  RH  051%=      5-min Rain = 0
KMC1 191712Z 20011KT 32/20 A3003 RMK A01 T03170204  RH  051%=      5-min Rain = 0
KMC1 191713Z 17010KT 32/21 A3003 RMK A01 T03170205  RH  051%=      5-min Rain = 0
KMC1 191714Z 17014KT 32/20 A3003 RMK A01 T03190202  RH  050%=      5-min Rain = 0
KMC1 191715Z 17013KT 32/20 A3003 RMK A01 T03170202  RH  051%=      5-min Rain = 0
KMC1 191716Z 16011KT 32/20 A3003 RMK A01 T03160201  RH  051%=      5-min Rain = 0
KMC1 191717Z 16010KT 32/20 A3003 RMK A01 T03170203  RH  051%=      5-min Rain = 0
KMC1 191718Z 16013G18KT 32/20 A3003 RMK A01 T03200204  RH  050%=      5-min Rain = 0
KMC1 191719Z 18016KT 32/20 A3003 RMK A01 T03200201  RH  050%=      5-min Rain = 0
KMC1 191720Z 18010KT 32/20 A3003 RMK A01 T03150201  RH  051%=      5-min Rain = 0
KMC1 191721Z 18011KT 31/20 A3003 RMK A01 T03130201  RH  051%=      5-min Rain = 0
KMC1 191722Z 19010G16KT 31/20 A3003 RMK A01 T03120201  RH  052%=      5-min Rain = 0
KMC1 191723Z 18011KT 31/20 A3003 RMK A01 T03140202  RH  051%=      5-min Rain = 0
KMC1 191724Z 19007KT 32/20 A3003 RMK A01 T03160202  RH  051%=      5-min Rain = 0
KMC1 191725Z 18012KT 32/20 A3003 RMK A01 T03180203  RH  051%=      5-min Rain = 0
KMC1 191726Z 16011KT 32/20 A3003 RMK A01 T03210203  RH  050%=      5-min Rain = 0
KMC1 191727Z 15008G13KT 32/20 A3003 RMK A01 T03220203  RH  049%=      5-min Rain = 0
KMC1 191728Z 15009G15KT 33/21 A3003 RMK A01 T03250205  RH  049%=      5-min Rain = 0
KMC1 191729Z 16012KT 33/20 A3003 RMK A01 T03270204  RH  049%=      5-min Rain = 0
KMC1 191730Z 17009KT 33/21 A3003 RMK A01 T03250205  RH  049%=      5-min Rain = 0
KMC1 191731Z 16008G14KT 33/21 A3003 RMK A01 T03250206  RH  050%=      5-min Rain = 0
KMC1 191732Z 16011KT 33/20 A3002 RMK A01 T03250203  RH  048%=      5-min Rain = 0
KMC1 191733Z 16012KT 33/20 A3003 RMK A01 T03260202  RH  048%=      5-min Rain = 0
KMC1 191734Z 18013KT 33/20 A3003 RMK A01 T03270199  RH  047%=      5-min Rain = 0
KMC1 191735Z 18015KT 33/20 A3003 RMK A01 T03250197  RH  047%=      5-min Rain = 0
KMC1 191736Z 18014KT 32/20 A3003 RMK A01 T03220198  RH  048%=      5-min Rain = 0
KMC1 191737Z 17012G18KT 32/20 A3003 RMK A01 T03210198  RH  048%=      5-min Rain = 0
KMC1 191738Z 18013KT 32/20 A3003 RMK A01 T03200200  RH  049%=      5-min Rain = 0
KMC1 191739Z 18010KT 32/20 A3002 RMK A01 T03210199  RH  049%=      5-min Rain = 0
KMC1 191740Z 18012G17KT 32/20 A3002 RMK A01 T03200200  RH  049%=      5-min Rain = 0
KMC1 191741Z 19012G17KT 32/20 A3002 RMK A01 T03200195  RH  048%=      5-min Rain = 0
KMC1 191742Z 17014KT 32/20 A3002 RMK A01 T03220196  RH  047%=      5-min Rain = 0
KMC1 191743Z 18012G19KT 32/20 A3002 RMK A01 T03210198  RH  048%=      5-min Rain = 0
KMC1 191744Z 20012G18KT 32/20 A3002 RMK A01 T03210199  RH  048%=      5-min Rain = 0
KMC1 191745Z 18015KT 32/20 A3002 RMK A01 T03200200  RH  049%=      5-min Rain = 0
KMC1 191746Z 17011KT 32/20 A3002 RMK A01 T03190201  RH  050%=      5-min Rain = 0
KMC1 191747Z 16005KT 32/20 A3002 RMK A01 T03200201  RH  049%=      5-min Rain = 0
KMC1 191748Z 16008G16KT 32/21 A3002 RMK A01 T03240205  RH  049%=      5-min Rain = 0
KMC1 191749Z 16012KT 33/20 A3002 RMK A01 T03280202  RH  048%=      5-min Rain = 0
KMC1 191750Z 16010KT 33/20 A3002 RMK A01 T03270199  RH  047%=      5-min Rain = 0
KMC1 191751Z 15008KT 33/20 A3002 RMK A01 T03270200  RH  047%=      5-min Rain = 0
KMC1 191752Z 15012G18KT 33/20 A3002 RMK A01 T03280196  RH  046%=      5-min Rain = 0
KMC1 191753Z 16013G19KT 33/19 A3002 RMK A01 T03280193  RH  045%=      5-min Rain = 0
KMC1 191754Z 18009KT 33/20 A3002 RMK A01 T03290195  RH  045%=      5-min Rain = 0
KMC1 191755Z 18011G16KT 33/19 A3002 RMK A01 T03320194  RH  044%=      5-min Rain = 0
KMC1 191756Z 19008G14KT 33/20 A3002 RMK A01 T03310195  RH  045%=      5-min Rain = 0
KMC1 191757Z 17008KT 33/20 A3002 RMK A01 T03310195  RH  045%=      5-min Rain = 0
KMC1 191758Z 16014KT 33/19 A3002 RMK A01 T03340194  RH  044%=      5-min Rain = 0
KMC1 191759Z 17010KT 33/20 A3002 RMK A01 T03310197  RH  045%=      5-min Rain = 0
KMC1 191800Z 15007G12KT 33/20 A3001 RMK A01 T03280200  RH  047%=      5-min Rain = 0
KMC1 191801Z 15008KT 33/20 A3001 RMK A01 T03290200  RH  046%=      5-min Rain = 0
KMC1 191802Z 15008G14KT 33/20 A3001 RMK A01 T03300199  RH  046%=      5-min Rain = 0
KMC1 191803Z 15010KT 33/20 A3001 RMK A01 T03300201  RH  047%=      5-min Rain = 0
KMC1 191804Z 16008KT 33/20 A3001 RMK A01 T03310201  RH  046%=      5-min Rain = 0
KMC1 191805Z 17011KT 33/20 A3001 RMK A01 T03330197  RH  045%=      5-min Rain = 0
KMC1 191806Z 16012KT 33/20 A3001 RMK A01 T03340195  RH  044%=      5-min Rain = 0
KMC1 191807Z 17010G15KT 33/20 A3001 RMK A01 T03320195  RH  044%=      5-min Rain = 0
KMC1 191808Z 16010KT 33/20 A3001 RMK A01 T03310195  RH  045%=      5-min Rain = 0
KMC1 191809Z 16011G17KT 33/20 A3001 RMK A01 T03310195  RH  045%=      5-min Rain = 0
KMC1 191810Z 16009KT 33/20 A3001 RMK A01 T03310196  RH  045%=      5-min Rain = 0
KMC1 191811Z 18009G16KT 33/20 A3001 RMK A01 T03310196  RH  045%=      5-min Rain = 0
KMC1 191812Z 15008KT 33/19 A3001 RMK A01 T03300194  RH  045%=      5-min Rain = 0
KMC1 191813Z 17011G16KT 33/20 A3001 RMK A01 T03310195  RH  045%=      5-min Rain = 0
KMC1 191814Z 15007KT 33/19 A3001 RMK A01 T03290193  RH  045%=      5-min Rain = 0
KMC1 191815Z 15008G15KT 33/20 A3001 RMK A01 T03310195  RH  045%=      5-min Rain = 0
KMC1 191816Z 17011KT 34/19 A3001 RMK A01 T03360194  RH  043%=      5-min Rain = 0
KMC1 191817Z 16011G16KT 34/19 A3001 RMK A01 T03360191  RH  043%=      5-min Rain = 0
KMC1 191818Z 16013G18KT 34/19 A3001 RMK A01 T03350190  RH  042%=      5-min Rain = 0
KMC1 191819Z 16010G15KT 33/19 A3001 RMK A01 T03330187  RH  042%=      5-min Rain = 0
KMC1 191820Z 15012G20KT 33/19 A3001 RMK A01 T03310187  RH  042%=      5-min Rain = 0
KMC1 191821Z 15012G19KT 33/18 A3001 RMK A01 T03320183  RH  041%=      5-min Rain = 0
KMC1 191822Z 17009KT 33/19 A3001 RMK A01 T03340187  RH  042%=      5-min Rain = 0
KMC1 191823Z 16011G17KT 34/19 A3001 RMK A01 T03360190  RH  042%=      5-min Rain = 0
KMC1 191824Z 16011KT 34/19 A3001 RMK A01 T03380192  RH  042%=      5-min Rain = 0
KMC1 191825Z 16011G16KT 34/19 A3001 RMK A01 T03360191  RH  042%=      5-min Rain = 0
KMC1 191826Z 18011KT 33/19 A3001 RMK A01 T03340188  RH  042%=      5-min Rain = 0
KMC1 191827Z 19010KT 33/19 A3001 RMK A01 T03320189  RH  043%=      5-min Rain = 0
KMC1 191828Z 19011KT 33/19 A3001 RMK A01 T03310189  RH  043%=      5-min Rain = 0
KMC1 191829Z 18010KT 33/19 A3001 RMK A01 T03320189  RH  043%=      5-min Rain = 0
KMC1 191830Z 15009KT 34/19 A3001 RMK A01 T03360191  RH  042%=      5-min Rain = 0
KMC1 191831Z 16011G17KT 34/19 A3001 RMK A01 T03380190  RH  042%=      5-min Rain = 0
KMC1 191832Z 16010G17KT 34/19 A3001 RMK A01 T03380189  RH  041%=      5-min Rain = 0
KMC1 191833Z 15011KT 34/19 A3001 RMK A01 T03380188  RH  041%=      5-min Rain = 0
KMC1 191834Z 15012G18KT 34/19 A3001 RMK A01 T03380187  RH  041%=      5-min Rain = 0
KMC1 191835Z 14010G16KT 34/19 A3001 RMK A01 T03370188  RH  041%=      5-min Rain = 0
KMC1 191836Z 15008KT 34/19 A3001 RMK A01 T03380190  RH  042%=      5-min Rain = 0
KMC1 191837Z 17012KT 34/19 A3001 RMK A01 T03410190  RH  041%=      5-min Rain = 0
KMC1 191838Z 16010KT 34/19 A3001 RMK A01 T03410192  RH  042%=      5-min Rain = 0
KMC1 191839Z 16012G17KT 34/19 A3001 RMK A01 T03410189  RH  041%=      5-min Rain = 0
KMC1 191840Z 16008KT 34/19 A30 RMK A01 T03390188  RH  041%=      5-min Rain = 0
KMC1 191841Z 15010G16KT 34/19 A30 RMK A01 T03400188  RH  041%=      5-min Rain = 0
KMC1 191842Z 15011KT 34/18 A30 RMK A01 T03420184  RH  039%=      5-min Rain = 0
KMC1 191843Z 15013G18KT 34/18 A30 RMK A01 T03410184  RH  040%=      5-min Rain = 0
KMC1 191844Z 14014KT 34/19 A30 RMK A01 T03400185  RH  040%=      5-min Rain = 0
KMC1 191845Z 15012KT 34/19 A30 RMK A01 T03370186  RH  041%=      5-min Rain = 0
KMC1 191846Z 16014KT 34/19 A3001 RMK A01 T03350185  RH  041%=      5-min Rain = 0
KMC1 191847Z 16011KT 33/19 A3001 RMK A01 T03330185  RH  042%=      5-min Rain = 0
KMC1 191848Z 15008KT 33/19 A30 RMK A01 T03330185  RH  041%=      5-min Rain = 0
KMC1 191849Z 16010G19KT 33/18 A30 RMK A01 T03340182  RH  041%=      5-min Rain = 0
KMC1 191850Z 17014KT 34/18 A30 RMK A01 T03350180  RH  040%=      5-min Rain = 0
KMC1 191851Z 16011KT 34/18 A30 RMK A01 T03370177  RH  039%=      5-min Rain = 0
KMC1 191852Z 16011G17KT 34/18 A30 RMK A01 T03400183  RH  039%=      5-min Rain = 0
KMC1 191853Z 17012KT 34/18 A30 RMK A01 T03420181  RH  039%=      5-min Rain = 0
KMC1 191854Z 18010KT 34/18 A30 RMK A01 T03400178  RH  038%=      5-min Rain = 0
KMC1 191855Z 16010KT 34/18 A30 RMK A01 T03400177  RH  038%=      5-min Rain = 0
KMC1 191856Z 15011KT 34/18 A30 RMK A01 T03400178  RH  038%=      5-min Rain = 0
KMC1 191857Z 14010G15KT 34/18 A30 RMK A01 T03410178  RH  038%=      5-min Rain = 0
KMC1 191858Z 15010KT 34/18 A30 RMK A01 T03410176  RH  038%=      5-min Rain = 0
KMC1 191859Z 16009KT 34/18 A30 RMK A01 T03400179  RH  038%=      5-min Rain = 0
KMC1 191900Z 14007KT 34/18 A30 RMK A01 T03410181  RH  039%=      5-min Rain = 0
KMC1 191901Z 14007KT 34/18 A30 RMK A01 T03420184  RH  039%=      5-min Rain = 0
KMC1 191902Z 16007KT 34/19 A30 RMK A01 T03440186  RH  039%=      5-min Rain = 0
KMC1 191903Z 18009KT 35/18 A30 RMK A01 T03480181  RH  037%=      5-min Rain = 0
KMC1 191904Z 17011G18KT 35/17 A30 RMK A01 T03480174  RH  036%=      5-min Rain = 0
KMC1 191905Z 18010G15KT 35/18 A30 RMK A01 T03470175  RH  036%=      5-min Rain = 0
KMC1 191906Z 19011KT 35/18 A30 RMK A01 T03460176  RH  037%=      5-min Rain = 0
KMC1 191907Z 19008KT 35/18 A30 RMK A01 T03450175  RH  036%=      5-min Rain = 0
KMC1 191908Z 18007KT 35/18 A30 RMK A01 T03460176  RH  036%=      5-min Rain = 0
KMC1 191909Z 18009KT 35/18 A30 RMK A01 T03490176  RH  036%=      5-min Rain = 0
KMC1 191910Z 15009KT 35/18 A30 RMK A01 T03500180  RH  037%=      5-min Rain = 0
KMC1 191911Z 13011KT 35/18 A30 RMK A01 T03500183  RH  037%=      5-min Rain = 0
KMC1 191912Z 15011G17KT 35/18 A30 RMK A01 T03470180  RH  037%=      5-min Rain = 0
KMC1 191913Z 16011KT 35/18 A30 RMK A01 T03460177  RH  037%=      5-min Rain = 0
KMC1 191914Z 17008KT 35/18 A30 RMK A01 T03470177  RH  037%=      5-min Rain = 0
KMC1 191915Z 16012G19KT 35/18 A30 RMK A01 T03460175  RH  036%=      5-min Rain = 0
KMC1 191916Z 17012G17KT 35/17 A30 RMK A01 T03460169  RH  035%=      5-min Rain = 0
KMC1 191917Z 16010KT 35/17 A30 RMK A01 T03470171  RH  035%=      5-min Rain = 0
KMC1 191918Z 15010KT 35/17 A30 RMK A01 T03480173  RH  036%=      5-min Rain = 0
KMC1 191919Z 15010G15KT 35/18 A30 RMK A01 T03490176  RH  036%=      5-min Rain = 0
KMC1 191920Z 16008KT 35/18 A30 RMK A01 T03500178  RH  036%=      5-min Rain = 0
KMC1 191921Z 17012KT 35/18 A30 RMK A01 T03510177  RH  036%=      5-min Rain = 0
KMC1 191922Z 16013KT 35/18 A30 RMK A01 T03480176  RH  036%=      5-min Rain = 0
KMC1 191923Z 17008G13KT 35/18 A30 RMK A01 T03470177  RH  037%=      5-min Rain = 0
KMC1 191924Z 16008G13KT 35/17 A30 RMK A01 T03470174  RH  036%=      5-min Rain = 0
KMC1 191925Z 15008KT 35/17 A2999 RMK A01 T03490171  RH  035%=      5-min Rain = 0
KMC1 191926Z 15011G17KT 35/17 A2999 RMK A01 T03500171  RH  035%=      5-min Rain = 0
KMC1 191927Z 17013KT 35/17 A30 RMK A01 T03510172  RH  035%=      5-min Rain = 0
KMC1 191928Z 15012KT 35/17 A2999 RMK A01 T03490173  RH  035%=      5-min Rain = 0
KMC1 191929Z 16009KT 35/18 A2999 RMK A01 T03470175  RH  036%=      5-min Rain = 0
KMC1 191930Z 17010KT 35/17 A2999 RMK A01 T03480173  RH  035%=      5-min Rain = 0
KMC1 191931Z 17008KT 35/17 A2999 RMK A01 T03500174  RH  035%=      5-min Rain = 0
KMC1 191932Z 17009KT 35/17 A2999 RMK A01 T03520168  RH  034%=      5-min Rain = 0
KMC1 191933Z 16009KT 35/17 A2999 RMK A01 T03520170  RH  034%=      5-min Rain = 0
KMC1 191934Z 15011KT 35/17 A2999 RMK A01 T03540173  RH  034%=      5-min Rain = 0
KMC1 191935Z 17011KT 35/18 A2999 RMK A01 T03520176  RH  035%=      5-min Rain = 0
KMC1 191936Z 16011KT 35/18 A2999 RMK A01 T03520175  RH  035%=      5-min Rain = 0
KMC1 191937Z 16009KT 35/18 A2999 RMK A01 T03500177  RH  036%=      5-min Rain = 0
KMC1 191938Z 16009KT 35/18 A2999 RMK A01 T03490178  RH  036%=      5-min Rain = 0
KMC1 191939Z 15006G12KT 35/18 A2999 RMK A01 T03480180  RH  037%=      5-min Rain = 0
KMC1 191940Z 14011G16KT 35/18 A2999 RMK A01 T03500179  RH  036%=      5-min Rain = 0
KMC1 191941Z 16012KT 35/18 A2999 RMK A01 T03500180  RH  037%=      5-min Rain = 0
KMC1 191942Z 16009KT 35/18 A2999 RMK A01 T03500180  RH  037%=      5-min Rain = 0
KMC1 191943Z 14005G10KT 35/18 A2999 RMK A01 T03530183  RH  037%=      5-min Rain = 0
KMC1 191944Z 15008G14KT 36/18 A2999 RMK A01 T03590181  RH  035%=      5-min Rain = 0
KMC1 191945Z 16012G17KT 36/18 A2999 RMK A01 T03610176  RH  034%=      5-min Rain = 0
KMC1 191946Z 17012G17KT 36/17 A2999 RMK A01 T03590173  RH  033%=      5-min Rain = 0
KMC1 191947Z 17016KT 36/17 A2999 RMK A01 T03550172  RH  034%=      5-min Rain = 0
KMC1 191948Z 16010G15KT 35/17 A2999 RMK A01 T03500170  RH  034%=      5-min Rain = 0
KMC1 191949Z 16007KT 35/17 A2998 RMK A01 T03490173  RH  035%=      5-min Rain = 0
KMC1 191950Z 18008KT 35/18 A2998 RMK A01 T03520176  RH  035%=      5-min Rain = 0
KMC1 191951Z 16011KT 36/18 A2998 RMK A01 T03550175  RH  034%=      5-min Rain = 0
KMC1 191952Z 16013KT 36/17 A2998 RMK A01 T03550174  RH  034%=      5-min Rain = 0
KMC1 191953Z 17010KT 35/17 A2998 RMK A01 T03530173  RH  035%=      5-min Rain = 0
KMC1 191954Z 17010G16KT 35/17 A2998 RMK A01 T03520174  RH  035%=      5-min Rain = 0
KMC1 191955Z 15013KT 35/17 A2998 RMK A01 T03520167  RH  033%=      5-min Rain = 0
KMC1 191956Z 15010G15KT 36/17 A2998 RMK A01 T03550165  RH  032%=      5-min Rain = 0
KMC1 191957Z 15010KT 36/17 A2998 RMK A01 T03570165  RH  032%=      5-min Rain = 0
KMC1 191958Z 15007KT 36/17 A2998 RMK A01 T03570166  RH  032%=      5-min Rain = 0
KMC1 191959Z 14008KT 36/17 A2998 RMK A01 T03560170  RH  033%=      5-min Rain = 0
KMC1 192000Z 13011G17KT 36/17 A2998 RMK A01 T03570169  RH  033%=      5-min Rain = 0
KMC1 192001Z 12012KT 36/17 A2998 RMK A01 T03560166  RH  033%=      5-min Rain = 0
KMC1 192002Z 13013KT 35/16 A2998 RMK A01 T03540161  RH  032%=      5-min Rain = 0
KMC1 192003Z 13015G21KT 35/16 A2998 RMK A01 T03540156  RH  031%=      5-min Rain = 0
KMC1 192004Z 14012G17KT 36/15 A2998 RMK A01 T03550152  RH  030%=      5-min Rain = 0
KMC1 192005Z 15011KT 36/15 A2998 RMK A01 T03560149  RH  029%=      5-min Rain = 0
KMC1 192006Z 16009G15KT 36/15 A2998 RMK A01 T03570151  RH  029%=      5-min Rain = 0
KMC1 192007Z 15009G14KT 36/15 A2998 RMK A01 T03580153  RH  029%=      5-min Rain = 0
KMC1 192008Z 16011G16KT 36/15 A2998 RMK A01 T03570152  RH  029%=      5-min Rain = 0
KMC1 192009Z 17014KT 36/15 A2998 RMK A01 T03560154  RH  030%=      5-min Rain = 0
KMC1 192010Z 16012KT 35/16 A2998 RMK A01 T03540157  RH  031%=      5-min Rain = 0
KMC1 192011Z 14009G17KT 35/16 A2998 RMK A01 T03530159  RH  032%=      5-min Rain = 0
KMC1 192012Z 13012G22KT 36/16 A2998 RMK A01 T03550157  RH  031%=      5-min Rain = 0
KMC1 192013Z 16013G18KT 36/16 A2998 RMK A01 T03550159  RH  031%=      5-min Rain = 0
KMC1 192014Z 15010G15KT 36/16 A2998 RMK A01 T03570158  RH  031%=      5-min Rain = 0
KMC1 192015Z 15010KT 36/16 A2998 RMK A01 T03580161  RH  031%=      5-min Rain = 0
KMC1 192016Z 16009KT 36/16 A2998 RMK A01 T03580162  RH  031%=      5-min Rain = 0
KMC1 192017Z 15011KT 36/16 A2998 RMK A01 T03580164  RH  032%=      5-min Rain = 0
KMC1 192018Z 16010KT 36/16 A2998 RMK A01 T03580164  RH  032%=      5-min Rain = 0
KMC1 192019Z 16010KT 36/17 A2998 RMK A01 T03560168  RH  033%=      5-min Rain = 0
KMC1 192020Z 17013KT 36/17 A2998 RMK A01 T03560166  RH  033%=      5-min Rain = 0
KMC1 192021Z 17009KT 35/17 A2997 RMK A01 T03530168  RH  033%=      5-min Rain = 0
KMC1 192022Z 16009G15KT 35/17 A2997 RMK A01 T03540173  RH  034%=      5-min Rain = 0
KMC1 192023Z 14011KT 36/17 A2998 RMK A01 T03580171  RH  033%=      5-min Rain = 0
KMC1 192024Z 15006KT 36/17 A2997 RMK A01 T03580167  RH  032%=      5-min Rain = 0
KMC1 192025Z 15006KT 36/16 A2997 RMK A01 T03570161  RH  031%=      5-min Rain = 0
KMC1 192026Z 18009G14KT 36/16 A2997 RMK A01 T03570160  RH  031%=      5-min Rain = 0
KMC1 192027Z 17013G19KT 36/16 A2997 RMK A01 T03590163  RH  031%=      5-min Rain = 0
KMC1 192028Z 17015KT 36/17 A2997 RMK A01 T03590168  RH  032%=      5-min Rain = 0
KMC1 192029Z 16006G11KT 36/17 A2997 RMK A01 T03550169  RH  033%=      5-min Rain = 0
KMC1 192030Z 16006KT 36/17 A2997 RMK A01 T03550170  RH  034%=      5-min Rain = 0
KMC1 192031Z 16010KT 36/17 A2997 RMK A01 T03580171  RH  033%=      5-min Rain = 0
KMC1 192032Z 14007G12KT 36/17 A2997 RMK A01 T03590173  RH  033%=      5-min Rain = 0
KMC1 192033Z 15008G13KT 36/17 A2997 RMK A01 T03590173  RH  033%=      5-min Rain = 0
KMC1 192034Z 15008KT 36/17 A2997 RMK A01 T03590172  RH  033%=      5-min Rain = 0
KMC1 192035Z 16007KT 36/17 A2997 RMK A01 T03570171  RH  033%=      5-min Rain = 0
KMC1 192036Z 14009KT 36/17 A2997 RMK A01 T03560171  RH  034%=      5-min Rain = 0
KMC1 192037Z 17010G16KT 36/17 A2997 RMK A01 T03570171  RH  033%=      5-min Rain = 0
KMC1 192038Z 17010KT 36/17 A2997 RMK A01 T03580168  RH  033%=      5-min Rain = 0
KMC1 192039Z 20009KT 36/17 A2997 RMK A01 T03570169  RH  033%=      5-min Rain = 0
KMC1 192040Z 20008KT 36/17 A2997 RMK A01 T03550170  RH  033%=      5-min Rain = 0
KMC1 192041Z 21007KT 35/17 A2997 RMK A01 T03540172  RH  034%=      5-min Rain = 0
KMC1 192042Z 16008KT 36/17 A2997 RMK A01 T03550174  RH  034%=      5-min Rain = 0
KMC1 192043Z 17009G14KT 36/18 A2997 RMK A01 T03580177  RH  034%=      5-min Rain = 0
KMC1 192044Z 18012KT 36/18 A2997 RMK A01 T03600180  RH  035%=      5-min Rain = 0
KMC1 192045Z 16011KT 36/18 A2997 RMK A01 T03610178  RH  034%=      5-min Rain = 0
KMC1 192046Z 18006KT 36/18 A2997 RMK A01 T03590179  RH  035%=      5-min Rain = 0
KMC1 192047Z 18009KT 36/18 A2997 RMK A01 T03610177  RH  034%=      5-min Rain = 0
KMC1 192048Z 18011KT 36/18 A2997 RMK A01 T03600176  RH  034%=      5-min Rain = 0
KMC1 192049Z 17007KT 36/18 A2997 RMK A01 T03580176  RH  034%=      5-min Rain = 0
KMC1 192050Z 16009KT 36/18 A2997 RMK A01 T03590175  RH  034%=      5-min Rain = 0
KMC1 192051Z 16007G13KT 36/18 A2997 RMK A01 T03640178  RH  034%=      5-min Rain = 0
KMC1 192052Z 16012KT 37/18 A2997 RMK A01 T03690175  RH  032%=      5-min Rain = 0
KMC1 192053Z 17010KT 37/18 A2997 RMK A01 T03670175  RH  032%=      5-min Rain = 0
KMC1 192054Z 17010KT 36/17 A2997 RMK A01 T03640173  RH  032%=      5-min Rain = 0
KMC1 192055Z 17008G13KT 36/17 A2997 RMK A01 T03630174  RH  033%=      5-min Rain = 0
KMC1 192056Z 20009KT 36/17 A2997 RMK A01 T03630173  RH  033%=      5-min Rain = 0
KMC1 192057Z 19007KT 36/17 A2996 RMK A01 T03610169  RH  032%=      5-min Rain = 0
KMC1 192058Z 18006KT 36/17 A2997 RMK A01 T03580171  RH  033%=      5-min Rain = 0
KMC1 192059Z 16009KT 36/16 A2997 RMK A01 T03590163  RH  031%=      5-min Rain = 0
KMC1 192100Z 14008KT 36/16 A2996 RMK A01 T03600157  RH  030%=      5-min Rain = 0
KMC1 192101Z 13012KT 36/16 A2996 RMK A01 T03620156  RH  030%=      5-min Rain = 0
KMC1 192102Z 14013KT 36/16 A2996 RMK A01 T03640155  RH  029%=      5-min Rain = 0
KMC1 192103Z 15009KT 36/16 A2996 RMK A01 T03640158  RH  030%=      5-min Rain = 0
KMC1 192104Z 16008G13KT 36/17 A2996 RMK A01 T03630167  RH  031%=      5-min Rain = 0
KMC1 192105Z 16011G16KT 36/17 A2996 RMK A01 T03640170  RH  032%=      5-min Rain = 0
KMC1 192106Z 15008KT 36/17 A2996 RMK A01 T03640170  RH  032%=      5-min Rain = 0
KMC1 192107Z 12011G18KT 36/17 A2996 RMK A01 T03630169  RH  032%=      5-min Rain = 0
KMC1 192108Z 12014G19KT 36/17 A2996 RMK A01 T03640165  RH  031%=      5-min Rain = 0
KMC1 192109Z 14013G18KT 37/16 A2996 RMK A01 T03650164  RH  030%=      5-min Rain = 0
KMC1 192110Z 13012KT 37/16 A2996 RMK A01 T03650163  RH  030%=      5-min Rain = 0
KMC1 192111Z 14009KT 37/16 A2996 RMK A01 T03650164  RH  031%=      5-min Rain = 0
KMC1 192112Z 14010G15KT 37/16 A2996 RMK A01 T03660164  RH  030%=      5-min Rain = 0
KMC1 192113Z 14013KT 37/16 A2996 RMK A01 T03650164  RH  030%=      5-min Rain = 0
KMC1 192114Z 13009KT 36/16 A2996 RMK A01 T03630163  RH  031%=      5-min Rain = 0
KMC1 192115Z 15008KT 36/17 A2996 RMK A01 T03620165  RH  031%=      5-min Rain = 0
KMC1 192116Z 14014G19KT 36/17 A2996 RMK A01 T03610168  RH  032%=      5-min Rain = 0
KMC1 192117Z 13011G17KT 36/17 A2995 RMK A01 T03620169  RH  032%=      5-min Rain = 0
KMC1 192118Z 13012KT 36/17 A2995 RMK A01 T03610171  RH  032%=      5-min Rain = 0
KMC1 192119Z 12010KT 36/17 A2995 RMK A01 T03620171  RH  032%=      5-min Rain = 0
KMC1 192120Z 14013KT 36/17 A2995 RMK A01 T03640170  RH  032%=      5-min Rain = 0
KMC1 192121Z 15011G17KT 36/17 A2995 RMK A01 T03620169  RH  032%=      5-min Rain = 0
KMC1 192122Z 14014KT 36/17 A2995 RMK A01 T03600168  RH  032%=      5-min Rain = 0
KMC1 192123Z 14011KT 36/17 A2995 RMK A01 T03590167  RH  032%=      5-min Rain = 0
KMC1 192124Z 13007KT 36/17 A2995 RMK A01 T03600165  RH  032%=      5-min Rain = 0
KMC1 192125Z 16010KT 36/17 A2995 RMK A01 T03600167  RH  032%=      5-min Rain = 0
KMC1 192126Z 17012KT 36/17 A2995 RMK A01 T03620168  RH  032%=      5-min Rain = 0
KMC1 192127Z 17013KT 36/17 A2995 RMK A01 T03640167  RH  031%=      5-min Rain = 0
KMC1 192128Z 17013KT 36/16 A2995 RMK A01 T03640164  RH  031%=      5-min Rain = 0
KMC1 192129Z 17014KT 36/16 A2995 RMK A01 T03610164  RH  031%=      5-min Rain = 0
KMC1 192130Z 17013G18KT 36/17 A2995 RMK A01 T03600165  RH  032%=      5-min Rain = 0
KMC1 192131Z 16013KT 36/17 A2995 RMK A01 T03610166  RH  032%=      5-min Rain = 0
KMC1 192132Z 15011G17KT 36/17 A2995 RMK A01 T03620169  RH  032%=      5-min Rain = 0
KMC1 192133Z 15012KT 36/17 A2995 RMK A01 T03620170  RH  032%=      5-min Rain = 0
KMC1 192134Z 14010KT 36/17 A2995 RMK A01 T03630171  RH  032%=      5-min Rain = 0
KMC1 192135Z 15012KT 36/17 A2995 RMK A01 T03640171  RH  032%=      5-min Rain = 0
KMC1 192136Z 17011KT 36/17 A2995 RMK A01 T03640172  RH  032%=      5-min Rain = 0
KMC1 192137Z 16007G12KT 37/17 A2995 RMK A01 T03650174  RH  032%=      5-min Rain = 0
KMC1 192138Z 18012KT 37/17 A2995 RMK A01 T03670174  RH  032%=      5-min Rain = 0
KMC1 192139Z 17010KT 37/17 A2995 RMK A01 T03660172  RH  032%=      5-min Rain = 0
KMC1 192140Z 17007KT 36/17 A2994 RMK A01 T03640172  RH  032%=      5-min Rain = 0
KMC1 192141Z 16010KT 36/17 A2994 RMK A01 T03640173  RH  033%=      5-min Rain = 0
KMC1 192142Z 17011KT 36/17 A2994 RMK A01 T03640168  RH  031%=      5-min Rain = 0
KMC1 192143Z 16013G19KT 37/17 A2994 RMK A01 T03660167  RH  031%=      5-min Rain = 0
KMC1 192144Z 14013KT 37/17 A2995 RMK A01 T03670166  RH  031%=      5-min Rain = 0
KMC1 192145Z 14012G17KT 37/17 A2995 RMK A01 T03670166  RH  031%=      5-min Rain = 0
KMC1 192146Z 15010KT 37/17 A2994 RMK A01 T03650167  RH  031%=      5-min Rain = 0
KMC1 192147Z 14010G15KT 37/17 A2994 RMK A01 T03650168  RH  031%=      5-min Rain = 0
KMC1 192148Z 13012KT 37/17 A2994 RMK A01 T03650167  RH  031%=      5-min Rain = 0
KMC1 192149Z 13011KT 37/17 A2994 RMK A01 T03650165  RH  031%=      5-min Rain = 0
KMC1 192150Z 14010KT 36/16 A2994 RMK A01 T03640164  RH  031%=      5-min Rain = 0
KMC1 192151Z 15010KT 36/17 A2994 RMK A01 T03630166  RH  031%=      5-min Rain = 0
KMC1 192152Z 13009G14KT 36/17 A2994 RMK A01 T03640168  RH  031%=      5-min Rain = 0
KMC1 192153Z 14011KT 37/17 A2994 RMK A01 T03650165  RH  031%=      5-min Rain = 0
KMC1 192154Z 15010G16KT 37/17 A2994 RMK A01 T03650166  RH  031%=      5-min Rain = 0
KMC1 192155Z 14010KT 37/17 A2994 RMK A01 T03650166  RH  031%=      5-min Rain = 0
KMC1 192156Z 15011KT 37/17 A2994 RMK A01 T03650167  RH  031%=      5-min Rain = 0
KMC1 192157Z 15015KT 37/17 A2994 RMK A01 T03650166  RH  031%=      5-min Rain = 0
KMC1 192158Z 15010G18KT 36/16 A2994 RMK A01 T03640163  RH  030%=      5-min Rain = 0
KMC1 192159Z 14013KT 36/17 A2994 RMK A01 T03640165  RH  031%=      5-min Rain = 0
KMC1 192200Z 13015KT 36/17 A2994 RMK A01 T03640167  RH  031%=      5-min Rain = 0
KMC1 192201Z 14012KT 36/17 A2994 RMK A01 T03620166  RH  031%=      5-min Rain = 0
KMC1 192202Z 13010KT 36/17 A2994 RMK A01 T03620166  RH  031%=      5-min Rain = 0
KMC1 192203Z 13011KT 36/17 A2994 RMK A01 T03620166  RH  031%=      5-min Rain = 0
KMC1 192204Z 13009KT 36/17 A2994 RMK A01 T03610168  RH  032%=      5-min Rain = 0
KMC1 192205Z 14009KT 36/17 A2994 RMK A01 T03620170  RH  032%=      5-min Rain = 0
KMC1 192206Z 16011KT 37/17 A2994 RMK A01 T03660168  RH  031%=      5-min Rain = 0
KMC1 192207Z 16012KT 37/17 A2994 RMK A01 T03670165  RH  030%=      5-min Rain = 0
KMC1 192208Z 16011KT 37/16 A2994 RMK A01 T03650162  RH  030%=      5-min Rain = 0
KMC1 192209Z 15008KT 36/16 A2994 RMK A01 T03630163  RH  031%=      5-min Rain = 0
KMC1 192210Z 16005G10KT 37/17 A2994 RMK A01 T03650168  RH  031%=      5-min Rain = 0
KMC1 192211Z 16005KT 37/17 A2994 RMK A01 T03680165  RH  030%=      5-min Rain = 0
KMC1 192212Z 16009G16KT 37/17 A2994 RMK A01 T03680167  RH  031%=      5-min Rain = 0
KMC1 192213Z 17010KT 37/17 A2994 RMK A01 T03670169  RH  031%=      5-min Rain = 0
KMC1 192214Z 16007KT 37/17 A2994 RMK A01 T03650171  RH  032%=      5-min Rain = 0
KMC1 192215Z 15011G17KT 37/17 A2994 RMK A01 T03650167  RH  031%=      5-min Rain = 0
KMC1 192216Z 15008KT 37/16 A2994 RMK A01 T03650164  RH  030%=      5-min Rain = 0
KMC1 192217Z 15012KT 37/16 A2994 RMK A01 T03670161  RH  030%=      5-min Rain = 0
KMC1 192218Z 15009G15KT 37/16 A2994 RMK A01 T03660160  RH  030%=      5-min Rain = 0
KMC1 192219Z 15008G13KT 36/16 A2994 RMK A01 T03640161  RH  030%=      5-min Rain = 0
KMC1 192220Z 15008G13KT 37/16 A2994 RMK A01 T03650162  RH  030%=      5-min Rain = 0
KMC1 192221Z 17010KT 37/17 A2993 RMK A01 T03660165  RH  031%=      5-min Rain = 0
KMC1 192222Z 16010KT 37/17 A2993 RMK A01 T03670167  RH  031%=      5-min Rain = 0
KMC1 192223Z 17009KT 37/17 A2993 RMK A01 T03660165  RH  031%=      5-min Rain = 0
KMC1 192224Z 13010G17KT 36/17 A2993 RMK A01 T03640166  RH  031%=      5-min Rain = 0
KMC1 192225Z 13015G22KT 36/16 A2993 RMK A01 T03640161  RH  030%=      5-min Rain = 0
KMC1 192226Z 14013KT 36/17 A2993 RMK A01 T03640165  RH  031%=      5-min Rain = 0
KMC1 192227Z 14012KT 36/17 A2993 RMK A01 T03640165  RH  031%=      5-min Rain = 0
KMC1 192228Z 14011KT 36/17 A2993 RMK A01 T03640167  RH  031%=      5-min Rain = 0
KMC1 192229Z 13014KT 36/17 A2993 RMK A01 T03640166  RH  031%=      5-min Rain = 0
KMC1 192230Z 13014KT 36/16 A2993 RMK A01 T03610163  RH  031%=      5-min Rain = 0
KMC1 192231Z 13014KT 36/16 A2993 RMK A01 T03590163  RH  031%=      5-min Rain = 0
KMC1 192232Z 13012KT 36/16 A2993 RMK A01 T03590163  RH  031%=      5-min Rain = 0
KMC1 192233Z 13010KT 36/16 A2993 RMK A01 T03590163  RH  031%=      5-min Rain = 0
KMC1 192234Z 14012KT 36/16 A2993 RMK A01 T03610163  RH  031%=      5-min Rain = 0
KMC1 192235Z 15010KT 36/16 A2993 RMK A01 T03610164  RH  031%=      5-min Rain = 0
KMC1 192236Z 12011G16KT 36/17 A2993 RMK A01 T03620167  RH  032%=      5-min Rain = 0
KMC1 192237Z 14009G14KT 36/17 A2993 RMK A01 T03630167  RH  031%=      5-min Rain = 0
KMC1 192238Z 15009KT 36/17 A2993 RMK A01 T03620167  RH  032%=      5-min Rain = 0
KMC1 192239Z 15012KT 36/17 A2993 RMK A01 T03640165  RH  031%=      5-min Rain = 0
KMC1 192240Z 15010G15KT 36/17 A2993 RMK A01 T03630165  RH  031%=      5-min Rain = 0
KMC1 192241Z 16010KT 36/16 A2993 RMK A01 T03640163  RH  031%=      5-min Rain = 0
KMC1 192242Z 15012KT 36/16 A2993 RMK A01 T03630162  RH  031%=      5-min Rain = 0
KMC1 192243Z 15009G14KT 36/16 A2993 RMK A01 T03620163  RH  031%=      5-min Rain = 0
KMC1 192244Z 15010G15KT 36/16 A2993 RMK A01 T03610162  RH  031%=      5-min Rain = 0
KMC1 192245Z 15008KT 36/16 A2993 RMK A01 T03610163  RH  031%=      5-min Rain = 0
KMC1 192246Z 15009G14KT 36/17 A2993 RMK A01 T03610166  RH  032%=      5-min Rain = 0
KMC1 192247Z 16009G14KT 36/17 A2992 RMK A01 T03610166  RH  032%=      5-min Rain = 0
KMC1 192248Z 16008KT 36/17 A2992 RMK A01 T03610166  RH  032%=      5-min Rain = 0
KMC1 192249Z 14013G19KT 36/17 A2992 RMK A01 T03600166  RH  032%=      5-min Rain = 0
KMC1 192250Z 14010KT 36/16 A2992 RMK A01 T03600162  RH  031%=      5-min Rain = 0
KMC1 192251Z 15008G13KT 36/16 A2992 RMK A01 T03600164  RH  031%=      5-min Rain = 0
KMC1 192252Z 17011G16KT 36/17 A2992 RMK A01 T03620165  RH  031%=      5-min Rain = 0
KMC1 192253Z 17010KT 36/17 A2992 RMK A01 T03620166  RH  031%=      5-min Rain = 0
KMC1 192254Z 16009G15KT 36/17 A2992 RMK A01 T03610167  RH  032%=      5-min Rain = 0
KMC1 192255Z 16015KT 36/17 A2992 RMK A01 T03600165  RH  032%=      5-min Rain = 0
KMC1 192256Z 14010KT 36/16 A2992 RMK A01 T03580164  RH  032%=      5-min Rain = 0
KMC1 192257Z 14012KT 36/16 A2992 RMK A01 T03590163  RH  031%=      5-min Rain = 0
KMC1 192258Z 15008G14KT 36/16 A2992 RMK A01 T03590163  RH  031%=      5-min Rain = 0
KMC1 192259Z 15008G15KT 36/16 A2992 RMK A01 T03600163  RH  031%=      5-min Rain = 0
KMC1 192300Z 16009G14KT 36/16 A2992 RMK A01 T03610164  RH  031%=      5-min Rain = 0
KMC1 192301Z 14007KT 36/16 A2992 RMK A01 T03620163  RH  031%=      5-min Rain = 0
KMC1 192302Z 16009G15KT 37/17 A2992 RMK A01 T03650165  RH  031%=      5-min Rain = 0
KMC1 192303Z 15009KT 37/17 A2992 RMK A01 T03660165  RH  031%=      5-min Rain = 0
KMC1 192304Z 16009G14KT 37/17 A2992 RMK A01 T03650166  RH  031%=      5-min Rain = 0
KMC1 192305Z 16011KT 37/16 A2992 RMK A01 T03650163  RH  030%=      5-min Rain = 0
KMC1 192306Z 16010KT 36/16 A2992 RMK A01 T03630161  RH  030%=      5-min Rain = 0
KMC1 192307Z 18010KT 36/16 A2992 RMK A01 T03600162  RH  031%=      5-min Rain = 0
KMC1 192308Z 17007KT 36/16 A2992 RMK A01 T03570163  RH  032%=      5-min Rain = 0
KMC1 192309Z 16006KT 36/17 A2992 RMK A01 T03590165  RH  032%=      5-min Rain = 0
KMC1 192310Z 17009KT 36/17 A2992 RMK A01 T03610166  RH  032%=      5-min Rain = 0
KMC1 192311Z 15010KT 36/17 A2992 RMK A01 T03610167  RH  032%=      5-min Rain = 0
KMC1 192312Z 16008KT 36/16 A2992 RMK A01 T03630161  RH  030%=      5-min Rain = 0
KMC1 192313Z 14009KT 36/16 A2992 RMK A01 T03640159  RH  030%=      5-min Rain = 0
KMC1 192314Z 14012KT 36/16 A2992 RMK A01 T03640156  RH  029%=      5-min Rain = 0
KMC1 192315Z 15010G17KT 36/16 A2992 RMK A01 T03600155  RH  030%=      5-min Rain = 0
KMC1 192316Z 14010G15KT 36/16 A2992 RMK A01 T03590159  RH  030%=      5-min Rain = 0
KMC1 192317Z 17010KT 36/16 A2992 RMK A01 T03590162  RH  031%=      5-min Rain = 0
KMC1 192318Z 16011KT 36/16 A2992 RMK A01 T03590164  RH  031%=      5-min Rain = 0
KMC1 192319Z 17011KT 36/16 A2992 RMK A01 T03590164  RH  031%=      5-min Rain = 0
KMC1 192320Z 14006G11KT 36/17 A2992 RMK A01 T03580166  RH  032%=      5-min Rain = 0
KMC1 192321Z 15008KT 36/16 A2992 RMK A01 T03590162  RH  031%=      5-min Rain = 0
KMC1 192322Z 14013G19KT 36/16 A2992 RMK A01 T03610157  RH  030%=      5-min Rain = 0
KMC1 192323Z 15012G18KT 36/16 A2992 RMK A01 T03590157  RH  030%=      5-min Rain = 0
KMC1 192324Z 16013G18KT 36/16 A2992 RMK A01 T03570159  RH  031%=      5-min Rain = 0
KMC1 192325Z 16010G15KT 36/16 A2992 RMK A01 T03570160  RH  031%=      5-min Rain = 0
KMC1 192326Z 17009KT 36/16 A2992 RMK A01 T03570158  RH  031%=      5-min Rain = 0
KMC1 192327Z 16010G18KT 36/16 A2992 RMK A01 T03570158  RH  031%=      5-min Rain = 0
KMC1 192328Z 16011KT 36/16 A2992 RMK A01 T03570160  RH  031%=      5-min Rain = 0
KMC1 192329Z 16012G17KT 36/16 A2992 RMK A01 T03570163  RH  032%=      5-min Rain = 0
KMC1 192330Z 16013KT 36/16 A2992 RMK A01 T03550164  RH  032%=      5-min Rain = 0
KMC1 192331Z 16010KT 35/16 A2992 RMK A01 T03540164  RH  032%=      5-min Rain = 0
KMC1 192332Z 15008KT 35/17 A2992 RMK A01 T03540166  RH  033%=      5-min Rain = 0
KMC1 192333Z 13008G13KT 35/17 A2992 RMK A01 T03540166  RH  033%=      5-min Rain = 0
KMC1 192334Z 13012KT 36/17 A2992 RMK A01 T03550166  RH  033%=      5-min Rain = 0
KMC1 192335Z 14012KT 36/17 A2992 RMK A01 T03560167  RH  033%=      5-min Rain = 0
KMC1 192336Z 14010KT 36/17 A2992 RMK A01 T03560166  RH  032%=      5-min Rain = 0
KMC1 192337Z 15012G18KT 35/17 A2992 RMK A01 T03540166  RH  033%=      5-min Rain = 0
KMC1 192338Z 15012KT 35/17 A2992 RMK A01 T03530166  RH  033%=      5-min Rain = 0
KMC1 192339Z 17010G15KT 35/17 A2992 RMK A01 T03530167  RH  033%=      5-min Rain = 0
KMC1 192340Z 16010G15KT 35/17 A2992 RMK A01 T03530167  RH  033%=      5-min Rain = 0
KMC1 192341Z 16009G14KT 35/17 A2992 RMK A01 T03540168  RH  033%=      5-min Rain = 0
KMC1 192342Z 16012G17KT 35/17 A2992 RMK A01 T03540166  RH  033%=      5-min Rain = 0
KMC1 192343Z 15011KT 36/16 A2992 RMK A01 T03550163  RH  032%=      5-min Rain = 0
KMC1 192344Z 16012KT 36/16 A2992 RMK A01 T03550162  RH  032%=      5-min Rain = 0
KMC1 192345Z 16010KT 36/16 A2992 RMK A01 T03550161  RH  032%=      5-min Rain = 0
KMC1 192346Z 15009KT 35/16 A2992 RMK A01 T03540163  RH  032%=      5-min Rain = 0
KMC1 192347Z 17007KT 35/16 A2992 RMK A01 T03540164  RH  032%=      5-min Rain = 0
KMC1 192348Z 17007KT 35/17 A2992 RMK A01 T03540166  RH  033%=      5-min Rain = 0
KMC1 192349Z 15005KT 36/17 A2992 RMK A01 T03550169  RH  033%=      5-min Rain = 0
KMC1 192350Z 16004KT 36/17 A2992 RMK A01 T03570170  RH  033%=      5-min Rain = 0
KMC1 192351Z 15010G15KT 36/17 A2992 RMK A01 T03590170  RH  033%=      5-min Rain = 0
KMC1 192352Z 15010G16KT 36/17 A2992 RMK A01 T03580169  RH  033%=      5-min Rain = 0
KMC1 192353Z 15012KT 36/17 A2992 RMK A01 T03580168  RH  032%=      5-min Rain = 0
KMC1 192354Z 14012G17KT 36/17 A2992 RMK A01 T03550165  RH  032%=      5-min Rain = 0
KMC1 192355Z 14012KT 35/16 A2992 RMK A01 T03530164  RH  033%=      5-min Rain = 0
KMC1 192356Z 15010G15KT 35/16 A2992 RMK A01 T03520163  RH  033%=      5-min Rain = 0
KMC1 192357Z 15009KT 35/16 A2992 RMK A01 T03510164  RH  033%=      5-min Rain = 0
KMC1 192358Z 17011KT 35/16 A2992 RMK A01 T03520164  RH  033%=      5-min Rain = 0
KMC1 192359Z 17010G17KT 35/16 A2992 RMK A01 T03520164  RH  033%=      5-min Rain = 0
KMC1 200000Z 16012G17KT 35/16 A2992 RMK A01 T03520164  RH  033%=      5-min Rain = 0
KMC1 200001Z 17011KT 35/16 A2992 RMK A01 T03510163  RH  033%=      5-min Rain = 0
KMC1 200002Z 17012KT 35/16 A2992 RMK A01 T03500164  RH  033%=      5-min Rain = 0
KMC1 200003Z 16010G15KT 35/17 A2992 RMK A01 T03500165  RH  033%=      5-min Rain = 0
KMC1 200004Z 16008G13KT 35/17 A2992 RMK A01 T03500167  RH  034%=      5-min Rain = 0
KMC1 200005Z 16013KT 35/17 A2992 RMK A01 T03500167  RH  034%=      5-min Rain = 0
KMC1 200006Z 14009KT 35/17 A2992 RMK A01 T03500168  RH  034%=      5-min Rain = 0
KMC1 200007Z 17012KT 35/17 A2992 RMK A01 T03490169  RH  034%=      5-min Rain = 0
KMC1 200008Z 16010KT 35/17 A2992 RMK A01 T03500169  RH  034%=      5-min Rain = 0
KMC1 200009Z 14007KT 35/17 A2992 RMK A01 T03490170  RH  035%=      5-min Rain = 0
KMC1 200010Z 15008KT 35/17 A2992 RMK A01 T03500171  RH  035%=      5-min Rain = 0
KMC1 200011Z 16009KT 35/17 A2992 RMK A01 T03500171  RH  035%=      5-min Rain = 0
KMC1 200012Z 16008KT 35/17 A2992 RMK A01 T03500172  RH  035%=      5-min Rain = 0
KMC1 200013Z 15008KT 35/17 A2992 RMK A01 T03500172  RH  035%=      5-min Rain = 0
KMC1 200014Z 16009KT 35/17 A2992 RMK A01 T03510172  RH  035%=      5-min Rain = 0
KMC1 200015Z 17010G16KT 35/17 A2992 RMK A01 T03500169  RH  034%=      5-min Rain = 0
KMC1 200016Z 16008KT 35/17 A2992 RMK A01 T03490169  RH  034%=      5-min Rain = 0
KMC1 200017Z 16008G13KT 35/17 A2992 RMK A01 T03490169  RH  035%=      5-min Rain = 0
KMC1 200018Z 15010KT 35/17 A2992 RMK A01 T03490166  RH  034%=      5-min Rain = 0
KMC1 200019Z 15008G13KT 35/16 A2992 RMK A01 T03490164  RH  033%=      5-min Rain = 0
KMC1 200020Z 16008KT 35/16 A2992 RMK A01 T03480163  RH  033%=      5-min Rain = 0
KMC1 200021Z 16008G13KT 35/16 A2992 RMK A01 T03480163  RH  033%=      5-min Rain = 0
KMC1 200022Z 15011KT 35/16 A2992 RMK A01 T03470162  RH  033%=      5-min Rain = 0
KMC1 200023Z 15009KT 35/16 A2992 RMK A01 T03470162  RH  033%=      5-min Rain = 0
KMC1 200024Z 15011KT 35/16 A2992 RMK A01 T03470162  RH  033%=      5-min Rain = 0
KMC1 200025Z 15009G14KT 35/16 A2992 RMK A01 T03460162  RH  033%=      5-min Rain = 0
KMC1 200026Z 15010KT 35/16 A2992 RMK A01 T03450162  RH  034%=      5-min Rain = 0
KMC1 200027Z 15010KT 35/16 A2992 RMK A01 T03450163  RH  034%=      5-min Rain = 0
KMC1 200028Z 14010KT 34/16 A2992 RMK A01 T03440163  RH  034%=      5-min Rain = 0
KMC1 200029Z 15010G18KT 34/16 A2992 RMK A01 T03440164  RH  034%=      5-min Rain = 0
KMC1 200030Z 16012G18KT 34/16 A2992 RMK A01 T03440163  RH  034%=      5-min Rain = 0
KMC1 200031Z 16011KT 34/16 A2992 RMK A01 T03440164  RH  034%=      5-min Rain = 0
KMC1 200032Z 15010KT 34/16 A2992 RMK A01 T03430163  RH  034%=      5-min Rain = 0
KMC1 200033Z 16008KT 34/16 A2992 RMK A01 T03430164  RH  034%=      5-min Rain = 0
KMC1 200034Z 16011G16KT 34/16 A2992 RMK A01 T03430163  RH  034%=      5-min Rain = 0
KMC1 200035Z 15009G15KT 34/16 A2992 RMK A01 T03430161  RH  034%=      5-min Rain = 0
KMC1 200036Z 15010KT 34/16 A2992 RMK A01 T03420161  RH  034%=      5-min Rain = 0
KMC1 200037Z 16009G14KT 34/16 A2992 RMK A01 T03420161  RH  034%=      5-min Rain = 0
KMC1 200038Z 16011G16KT 34/16 A2992 RMK A01 T03420161  RH  034%=      5-min Rain = 0
KMC1 200039Z 16011KT 34/16 A2992 RMK A01 T03420161  RH  034%=      5-min Rain = 0
KMC1 200040Z 16011KT 34/16 A2992 RMK A01 T03410162  RH  034%=      5-min Rain = 0
KMC1 200041Z 15007KT 34/16 A2992 RMK A01 T03410163  RH  035%=      5-min Rain = 0
KMC1 200042Z 16009G15KT 34/16 A2992 RMK A01 T03410164  RH  035%=      5-min Rain = 0
KMC1 200043Z 17009G15KT 34/17 A2993 RMK A01 T03410165  RH  035%=      5-min Rain = 0
KMC1 200044Z 16009G14KT 34/16 A2992 RMK A01 T03400164  RH  035%=      5-min Rain = 0
KMC1 200045Z 15007KT 34/16 A2993 RMK A01 T03400164  RH  035%=      5-min Rain = 0
KMC1 200046Z 16007G13KT 34/17 A2993 RMK A01 T03400165  RH  035%=      5-min Rain = 0
KMC1 200047Z 14009KT 34/17 A2993 RMK A01 T03400165  RH  035%=      5-min Rain = 0
KMC1 200048Z 16010KT 34/16 A2993 RMK A01 T03390164  RH  035%=      5-min Rain = 0
KMC1 200049Z 15009G15KT 34/16 A2993 RMK A01 T03390164  RH  035%=      5-min Rain = 0
KMC1 200050Z 16008KT 34/16 A2993 RMK A01 T03380164  RH  035%=      5-min Rain = 0
KMC1 200051Z 15008KT 34/16 A2993 RMK A01 T03380164  RH  035%=      5-min Rain = 0
KMC1 200052Z 16006KT 34/17 A2993 RMK A01 T03380165  RH  036%=      5-min Rain = 0
KMC1 200053Z 16007KT 34/17 A2993 RMK A01 T03380166  RH  036%=      5-min Rain = 0
KMC1 200054Z 15005KT 34/17 A2993 RMK A01 T03380166  RH  036%=      5-min Rain = 0
KMC1 200055Z 15007KT 34/17 A2993 RMK A01 T03370167  RH  036%=      5-min Rain = 0
KMC1 200056Z 15007KT 34/17 A2993 RMK A01 T03370166  RH  036%=      5-min Rain = 0
KMC1 200057Z 15007KT 34/16 A2993 RMK A01 T03360164  RH  036%=      5-min Rain = 0
KMC1 200058Z 15007KT 34/16 A2993 RMK A01 T03360164  RH  036%=      5-min Rain = 0
KMC1 200059Z 15008KT 34/16 A2993 RMK A01 T03360164  RH  036%=      5-min Rain = 0
KMC1 200100Z 15009KT 34/16 A2993 RMK A01 T03350164  RH  036%=      5-min Rain = 0
KMC1 200101Z 16008KT 34/17 A2993 RMK A01 T03350165  RH  036%=      5-min Rain = 0
KMC1 200102Z 16007KT 33/17 A2993 RMK A01 T03340165  RH  036%=      5-min Rain = 0
KMC1 200103Z 16004KT 33/17 A2993 RMK A01 T03340167  RH  037%=      5-min Rain = 0
KMC1 200104Z 16005KT 33/17 A2993 RMK A01 T03340168  RH  037%=      5-min Rain = 0
KMC1 200105Z 16007KT 33/17 A2993 RMK A01 T03330168  RH  037%=      5-min Rain = 0
KMC1 200106Z 15007KT 33/17 A2993 RMK A01 T03320168  RH  038%=      5-min Rain = 0
KMC1 200107Z 15007KT 33/17 A2993 RMK A01 T03320169  RH  038%=      5-min Rain = 0
KMC1 200108Z 13007KT 33/17 A2993 RMK A01 T03320169  RH  038%=      5-min Rain = 0
KMC1 200109Z 14008KT 33/17 A2993 RMK A01 T03310170  RH  038%=      5-min Rain = 0
KMC1 200110Z 14008KT 33/17 A2993 RMK A01 T03300170  RH  039%=      5-min Rain = 0
KMC1 200111Z 14007G13KT 33/17 A2993 RMK A01 T03300171  RH  039%=      5-min Rain = 0
KMC1 200112Z 13007KT 33/17 A2993 RMK A01 T03300172  RH  039%=      5-min Rain = 0
KMC1 200113Z 14008G13KT 33/17 A2993 RMK A01 T03290172  RH  039%=      5-min Rain = 0
KMC1 200114Z 14008G13KT 33/17 A2993 RMK A01 T03290172  RH  039%=      5-min Rain = 0
KMC1 200115Z 14009KT 33/17 A2993 RMK A01 T03280173  RH  040%=      5-min Rain = 0
KMC1 200116Z 14010KT 33/17 A2993 RMK A01 T03280173  RH  040%=      5-min Rain = 0
KMC1 200117Z 14009KT 33/17 A2993 RMK A01 T03270173  RH  040%=      5-min Rain = 0
KMC1 200118Z 15008KT 33/17 A2993 RMK A01 T03270173  RH  040%=      5-min Rain = 0
KMC1 200119Z 14009KT 33/17 A2993 RMK A01 T03260173  RH  040%=      5-min Rain = 0
KMC1 200120Z 14008KT 33/17 A2993 RMK A01 T03260173  RH  040%=      5-min Rain = 0
KMC1 200121Z 13009KT 33/17 A2993 RMK A01 T03260173  RH  040%=      5-min Rain = 0
KMC1 200122Z 14010KT 33/17 A2993 RMK A01 T03260174  RH  040%=      5-min Rain = 0
KMC1 200123Z 14008KT 33/17 A2993 RMK A01 T03250173  RH  040%=      5-min Rain = 0
KMC1 200124Z 13008KT 33/17 A2993 RMK A01 T03250174  RH  041%=      5-min Rain = 0
KMC1 200125Z 14010KT 32/17 A2993 RMK A01 T03240174  RH  041%=      5-min Rain = 0
KMC1 200126Z 14007KT 32/17 A2993 RMK A01 T03240173  RH  041%=      5-min Rain = 0
KMC1 200127Z 14007KT 32/17 A2993 RMK A01 T03230174  RH  041%=      5-min Rain = 0
KMC1 200128Z 13008KT 32/17 A2993 RMK A01 T03230174  RH  041%=      5-min Rain = 0
KMC1 200129Z 15007KT 32/17 A2993 RMK A01 T03220174  RH  041%=      5-min Rain = 0
KMC1 200130Z 14006KT 32/17 A2993 RMK A01 T03220174  RH  041%=      5-min Rain = 0
KMC1 200131Z 13008KT 32/17 A2993 RMK A01 T03210174  RH  041%=      5-min Rain = 0
KMC1 200132Z 13006KT 32/17 A2993 RMK A01 T03210174  RH  042%=      5-min Rain = 0
KMC1 200133Z 13006KT 32/17 A2994 RMK A01 T03200174  RH  042%=      5-min Rain = 0
KMC1 200134Z 14005KT 32/17 A2994 RMK A01 T03200174  RH  042%=      5-min Rain = 0
KMC1 200135Z 14006KT 32/17 A2994 RMK A01 T03190174  RH  042%=      5-min Rain = 0
KMC1 200136Z 14007KT 32/17 A2994 RMK A01 T03180174  RH  042%=      5-min Rain = 0
KMC1 200137Z 14006KT 32/18 A2994 RMK A01 T03180175  RH  042%=      5-min Rain = 0
KMC1 200138Z 13009KT 32/17 A2994 RMK A01 T03170174  RH  042%=      5-min Rain = 0
KMC1 200139Z 14009KT 32/17 A2994 RMK A01 T03170174  RH  042%=      5-min Rain = 0
KMC1 200140Z 14007KT 32/17 A2994 RMK A01 T03170173  RH  042%=      5-min Rain = 0
KMC1 200141Z 14009KT 32/17 A2994 RMK A01 T03170174  RH  042%=      5-min Rain = 0
KMC1 200142Z 13010KT 32/17 A2994 RMK A01 T03170173  RH  042%=      5-min Rain = 0
KMC1 200143Z 14005KT 32/17 A2994 RMK A01 T03170174  RH  042%=      5-min Rain = 0
KMC1 200144Z 14007KT 32/17 A2994 RMK A01 T03160174  RH  043%=      5-min Rain = 0
KMC1 200145Z 14007KT 32/17 A2994 RMK A01 T03160174  RH  043%=      5-min Rain = 0
KMC1 200146Z 14005KT 32/17 A2994 RMK A01 T03150174  RH  043%=      5-min Rain = 0
KMC1 200147Z 14005KT 31/17 A2994 RMK A01 T03140174  RH  043%=      5-min Rain = 0
KMC1 200148Z 14008KT 31/17 A2994 RMK A01 T03130173  RH  043%=      5-min Rain = 0
KMC1 200149Z 14005KT 31/17 A2994 RMK A01 T03130173  RH  043%=      5-min Rain = 0
KMC1 200150Z 14005KT 31/17 A2994 RMK A01 T03130174  RH  043%=      5-min Rain = 0
KMC1 200151Z 14008G13KT 31/17 A2994 RMK A01 T03130173  RH  043%=      5-min Rain = 0
KMC1 200152Z 13009KT 31/17 A2994 RMK A01 T03120173  RH  043%=      5-min Rain = 0
KMC1 200153Z 14007KT 31/17 A2994 RMK A01 T03120173  RH  043%=      5-min Rain = 0
KMC1 200154Z 14006KT 31/17 A2994 RMK A01 T03120173  RH  043%=      5-min Rain = 0
KMC1 200155Z 13007KT 31/17 A2994 RMK A01 T03130173  RH  043%=      5-min Rain = 0
KMC1 200156Z 14007KT 31/17 A2994 RMK A01 T03120173  RH  043%=      5-min Rain = 0
KMC1 200157Z 14008KT 31/17 A2994 RMK A01 T03120173  RH  044%=      5-min Rain = 0
KMC1 200158Z 15008KT 31/17 A2994 RMK A01 T03120173  RH  043%=      5-min Rain = 0
KMC1 200159Z 14006KT 31/17 A2994 RMK A01 T03110173  RH  043%=      5-min Rain = 0
KMC1 200200Z 14007G12KT 31/17 A2994 RMK A01 T03110173  RH  044%=      5-min Rain = 0
KMC1 200201Z 14007KT 31/17 A2994 RMK A01 T03110173  RH  044%=      5-min Rain = 0
KMC1 200202Z 14007KT 31/17 A2994 RMK A01 T03110173  RH  044%=      5-min Rain = 0
KMC1 200203Z 14008KT 31/17 A2994 RMK A01 T03100173  RH  044%=      5-min Rain = 0
KMC1 200204Z 14008KT 31/17 A2994 RMK A01 T03100173  RH  044%=      5-min Rain = 0
KMC1 200205Z 14009KT 31/17 A2994 RMK A01 T03100173  RH  044%=      5-min Rain = 0
KMC1 200206Z 14008KT 31/17 A2994 RMK A01 T03100172  RH  044%=      5-min Rain = 0
KMC1 200207Z 14009KT 31/17 A2994 RMK A01 T03100173  RH  044%=      5-min Rain = 0
KMC1 200208Z 15007G12KT 31/17 A2994 RMK A01 T03110173  RH  044%=      5-min Rain = 0
KMC1 200209Z 14008KT 31/17 A2994 RMK A01 T03100173  RH  044%=      5-min Rain = 0
KMC1 200210Z 14006KT 31/17 A2994 RMK A01 T03090173  RH  044%=      5-min Rain = 0
KMC1 200211Z 14008KT 31/17 A2994 RMK A01 T03090173  RH  044%=      5-min Rain = 0
KMC1 200212Z 14007KT 31/17 A2994 RMK A01 T03080173  RH  044%=      5-min Rain = 0
KMC1 200213Z 14007KT 31/17 A2994 RMK A01 T03080173  RH  044%=      5-min Rain = 0
KMC1 200214Z 14006KT 31/17 A2994 RMK A01 T03080173  RH  044%=      5-min Rain = 0
KMC1 200215Z 14007KT 31/17 A2994 RMK A01 T03080174  RH  044%=      5-min Rain = 0
KMC1 200216Z 13006KT 31/17 A2994 RMK A01 T03080174  RH  045%=      5-min Rain = 0
KMC1 200217Z 13006KT 31/17 A2994 RMK A01 T03070174  RH  045%=      5-min Rain = 0
KMC1 200218Z 13007KT 31/17 A2994 RMK A01 T03070174  RH  045%=      5-min Rain = 0
KMC1 200219Z 14007KT 31/17 A2994 RMK A01 T03070174  RH  045%=      5-min Rain = 0
KMC1 200220Z 14007KT 31/17 A2994 RMK A01 T03060174  RH  045%=      5-min Rain = 0
KMC1 200221Z 13007KT 31/17 A2994 RMK A01 T03060174  RH  045%=      5-min Rain = 0
KMC1 200222Z 14006KT 31/17 A2994 RMK A01 T03060174  RH  045%=      5-min Rain = 0
KMC1 200223Z 14006KT 31/17 A2994 RMK A01 T03060174  RH  045%=      5-min Rain = 0
KMC1 200224Z 14007KT 31/17 A2994 RMK A01 T03050174  RH  045%=      5-min Rain = 0
KMC1 200225Z 14008KT 31/17 A2994 RMK A01 T03050174  RH  045%=      5-min Rain = 0
KMC1 200226Z 14008KT 31/17 A2994 RMK A01 T03050174  RH  046%=      5-min Rain = 0
KMC1 200227Z 13007G12KT 31/18 A2994 RMK A01 T03050175  RH  046%=      5-min Rain = 0
KMC1 200228Z 13006KT 31/17 A2994 RMK A01 T03050174  RH  046%=      5-min Rain = 0
KMC1 200229Z 13006G11KT 30/17 A2995 RMK A01 T03040174  RH  046%=      5-min Rain = 0
KMC1 200230Z 13009KT 30/18 A2995 RMK A01 T03040175  RH  046%=      5-min Rain = 0
KMC1 200231Z 13006KT 30/17 A2995 RMK A01 T03040174  RH  046%=      5-min Rain = 0
KMC1 200232Z 14006KT 30/18 A2995 RMK A01 T03040175  RH  046%=      5-min Rain = 0
KMC1 200233Z 13007KT 30/18 A2995 RMK A01 T03040175  RH  046%=      5-min Rain = 0
KMC1 200234Z 13006KT 30/18 A2995 RMK A01 T03040175  RH  046%=      5-min Rain = 0
KMC1 200235Z 14005KT 30/18 A2995 RMK A01 T03040175  RH  046%=      5-min Rain = 0
KMC1 200236Z 14005KT 30/18 A2995 RMK A01 T03030175  RH  046%=      5-min Rain = 0
KMC1 200237Z 14005KT 30/18 A2995 RMK A01 T03030175  RH  046%=      5-min Rain = 0
KMC1 200238Z 14007KT 30/18 A2995 RMK A01 T03020175  RH  046%=      5-min Rain = 0
KMC1 200239Z 14006KT 30/18 A2995 RMK A01 T03020175  RH  047%=      5-min Rain = 0
KMC1 200240Z 13006KT 30/18 A2995 RMK A01 T03020175  RH  047%=      5-min Rain = 0
KMC1 200241Z 14006KT 30/18 A2995 RMK A01 T03020175  RH  047%=      5-min Rain = 0
KMC1 200242Z 14006KT 30/18 A2995 RMK A01 T03020175  RH  047%=      5-min Rain = 0
KMC1 200243Z 13008KT 30/18 A2995 RMK A01 T03010175  RH  047%=      5-min Rain = 0
KMC1 200244Z 14006KT 30/18 A2995 RMK A01 T03010175  RH  047%=      5-min Rain = 0
KMC1 200245Z 13007KT 30/18 A2995 RMK A01 T03020175  RH  047%=      5-min Rain = 0
KMC1 200246Z 14009KT 30/18 A2995 RMK A01 T03020175  RH  047%=      5-min Rain = 0
KMC1 200247Z 14007KT 30/18 A2995 RMK A01 T03020175  RH  046%=      5-min Rain = 0
KMC1 200248Z 13006KT 30/18 A2995 RMK A01 T03020175  RH  047%=      5-min Rain = 0
KMC1 200249Z 13006KT 30/18 A2995 RMK A01 T03010175  RH  047%=      5-min Rain = 0
KMC1 200250Z 13008KT 30/18 A2995 RMK A01 T03010175  RH  047%=      5-min Rain = 0
KMC1 200251Z 13007KT 30/18 A2996 RMK A01 T03010175  RH  047%=      5-min Rain = 0
KMC1 200252Z 13006KT 30/18 A2996 RMK A01 T03000175  RH  047%=      5-min Rain = 0
KMC1 200253Z 14006KT 30/18 A2996 RMK A01 T03000175  RH  047%=      5-min Rain = 0
KMC1 200254Z 13006KT 30/18 A2996 RMK A01 T02990175  RH  047%=      5-min Rain = 0
KMC1 200255Z 13007KT 30/18 A2996 RMK A01 T02990175  RH  047%=      5-min Rain = 0
KMC1 200256Z 13006KT 30/18 A2996 RMK A01 T02990175  RH  048%=      5-min Rain = 0
KMC1 200257Z 13006KT 30/18 A2996 RMK A01 T02990175  RH  048%=      5-min Rain = 0
KMC1 200258Z 13007KT 30/18 A2996 RMK A01 T02990175  RH  048%=      5-min Rain = 0
KMC1 200259Z 13007KT 30/18 A2996 RMK A01 T02990176  RH  048%=      5-min Rain = 0
KMC1 200300Z 13007KT 30/18 A2996 RMK A01 T02990176  RH  048%=      5-min Rain = 0
KMC1 200301Z 13007KT 30/18 A2996 RMK A01 T02980176  RH  048%=      5-min Rain = 0
KMC1 200302Z 13006KT 30/18 A2996 RMK A01 T02980176  RH  048%=      5-min Rain = 0
KMC1 200303Z 12006KT 30/18 A2996 RMK A01 T02980175  RH  048%=      5-min Rain = 0
KMC1 200304Z 13007KT 30/18 A2996 RMK A01 T02970175  RH  048%=      5-min Rain = 0
KMC1 200305Z 12007KT 30/18 A2996 RMK A01 T02970176  RH  048%=      5-min Rain = 0
KMC1 200306Z 13007KT 30/18 A2996 RMK A01 T02960176  RH  048%=      5-min Rain = 0
KMC1 200307Z 14007KT 30/18 A2996 RMK A01 T02960176  RH  048%=      5-min Rain = 0
KMC1 200308Z 13007KT 30/18 A2996 RMK A01 T02960175  RH  048%=      5-min Rain = 0
KMC1 200309Z 14008KT 30/18 A2996 RMK A01 T02960176  RH  048%=      5-min Rain = 0
KMC1 200310Z 13007KT 30/18 A2996 RMK A01 T02960176  RH  048%=      5-min Rain = 0
KMC1 200311Z 14006KT 30/18 A2996 RMK A01 T02960176  RH  048%=      5-min Rain = 0
KMC1 200312Z 13006KT 30/18 A2996 RMK A01 T02960176  RH  048%=      5-min Rain = 0
KMC1 200313Z 14007KT 30/18 A2996 RMK A01 T02960176  RH  049%=      5-min Rain = 0
KMC1 200314Z 14009KT 30/18 A2996 RMK A01 T02950176  RH  049%=      5-min Rain = 0
KMC1 200315Z 14007KT 30/18 A2996 RMK A01 T02960176  RH  049%=      5-min Rain = 0
KMC1 200316Z 14008KT 30/18 A2996 RMK A01 T02960176  RH  049%=      5-min Rain = 0
KMC1 200317Z 14006KT 30/18 A2996 RMK A01 T02960176  RH  049%=      5-min Rain = 0
KMC1 200318Z 14006KT 30/18 A2997 RMK A01 T02960177  RH  049%=      5-min Rain = 0
KMC1 200319Z 13007KT 30/18 A2997 RMK A01 T02960177  RH  049%=      5-min Rain = 0
KMC1 200320Z 14008KT 30/18 A2997 RMK A01 T02950176  RH  049%=      5-min Rain = 0
KMC1 200321Z 14011KT 30/18 A2997 RMK A01 T02960177  RH  049%=      5-min Rain = 0
KMC1 200322Z 13009KT 30/18 A2997 RMK A01 T02960177  RH  049%=      5-min Rain = 0
KMC1 200323Z 13008KT 30/18 A2997 RMK A01 T02960177  RH  049%=      5-min Rain = 0
KMC1 200324Z 13008KT 30/18 A2997 RMK A01 T02970177  RH  049%=      5-min Rain = 0
KMC1 200325Z 13005KT 30/18 A2997 RMK A01 T02960177  RH  049%=      5-min Rain = 0
KMC1 200326Z 14007G12KT 30/18 A2997 RMK A01 T02950177  RH  049%=      5-min Rain = 0
KMC1 200327Z 13007KT 30/18 A2997 RMK A01 T02950177  RH  049%=      5-min Rain = 0
KMC1 200328Z 13007KT 30/18 A2997 RMK A01 T02950177  RH  049%=      5-min Rain = 0
KMC1 200329Z 13010KT 30/18 A2997 RMK A01 T02950177  RH  049%=      5-min Rain = 0
KMC1 200330Z 13008KT 30/18 A2997 RMK A01 T02950177  RH  049%=      5-min Rain = 0
KMC1 200331Z 13008KT 30/18 A2997 RMK A01 T02950177  RH  049%=      5-min Rain = 0
KMC1 200332Z 13006KT 30/18 A2997 RMK A01 T02950178  RH  049%=      5-min Rain = 0
KMC1 200333Z 13009KT 29/18 A2997 RMK A01 T02940178  RH  050%=      5-min Rain = 0
KMC1 200334Z 13008KT 29/18 A2997 RMK A01 T02940178  RH  050%=      5-min Rain = 0
KMC1 200335Z 13007KT 29/18 A2997 RMK A01 T02940178  RH  050%=      5-min Rain = 0
KMC1 200336Z 13009KT 29/18 A2997 RMK A01 T02940179  RH  050%=      5-min Rain = 0
KMC1 200337Z 13008KT 29/18 A2997 RMK A01 T02940178  RH  050%=      5-min Rain = 0
KMC1 200338Z 12008KT 29/18 A2997 RMK A01 T02940179  RH  050%=      5-min Rain = 0
KMC1 200339Z 12008KT 29/18 A2997 RMK A01 T02930178  RH  050%=      5-min Rain = 0
KMC1 200340Z 13006KT 29/18 A2997 RMK A01 T02930178  RH  050%=      5-min Rain = 0
KMC1 200341Z 12007KT 29/18 A2997 RMK A01 T02930179  RH  050%=      5-min Rain = 0
KMC1 200342Z 13006KT 29/18 A2997 RMK A01 T02920179  RH  050%=      5-min Rain = 0
KMC1 200343Z 12007G12KT 29/18 A2997 RMK A01 T02920179  RH  051%=      5-min Rain = 0
KMC1 200344Z 13008KT 29/18 A2997 RMK A01 T02910179  RH  051%=      5-min Rain = 0
KMC1 200345Z 13008KT 29/18 A2997 RMK A01 T02910179  RH  051%=      5-min Rain = 0
KMC1 200346Z 13009KT 29/18 A2997 RMK A01 T02920180  RH  051%=      5-min Rain = 0
KMC1 200347Z 13005KT 29/18 A2997 RMK A01 T02920180  RH  051%=      5-min Rain = 0
KMC1 200348Z 13006KT 29/18 A2997 RMK A01 T02920180  RH  051%=      5-min Rain = 0
KMC1 200349Z 14009KT 29/18 A2998 RMK A01 T02910180  RH  051%=      5-min Rain = 0
KMC1 200350Z 13007KT 29/18 A2998 RMK A01 T02910181  RH  051%=      5-min Rain = 0
KMC1 200351Z 13006KT 29/18 A2998 RMK A01 T02920181  RH  051%=      5-min Rain = 0
KMC1 200352Z 12007KT 29/18 A2998 RMK A01 T02910181  RH  051%=      5-min Rain = 0
KMC1 200353Z 12008KT 29/18 A2998 RMK A01 T02910182  RH  052%=      5-min Rain = 0
KMC1 200354Z 12007KT 29/18 A2998 RMK A01 T02910182  RH  052%=      5-min Rain = 0
KMC1 200355Z 13008KT 29/18 A2998 RMK A01 T02900182  RH  052%=      5-min Rain = 0
KMC1 200356Z 13008KT 29/18 A2998 RMK A01 T02910182  RH  052%=      5-min Rain = 0
KMC1 200357Z 13008KT 29/18 A2998 RMK A01 T02910182  RH  052%=      5-min Rain = 0
KMC1 200358Z 13007KT 29/18 A2998 RMK A01 T02910182  RH  052%=      5-min Rain = 0
KMC1 200359Z 12006KT 29/18 A2998 RMK A01 T02910183  RH  052%=      5-min Rain = 0
KMC1 200400Z 13005KT 29/18 A2998 RMK A01 T02900183  RH  052%=      5-min Rain = 0
KMC1 200401Z 12006KT 29/18 A2998 RMK A01 T02890182  RH  052%=      5-min Rain = 0
KMC1 200402Z 12006KT 29/18 A2998 RMK A01 T02890182  RH  053%=      5-min Rain = 0
KMC1 200403Z 12006KT 29/18 A2998 RMK A01 T02880182  RH  053%=      5-min Rain = 0
KMC1 200404Z 12005KT 29/18 A2998 RMK A01 T02890182  RH  053%=      5-min Rain = 0
KMC1 200405Z 13006KT 29/18 A2998 RMK A01 T02880182  RH  053%=      5-min Rain = 0
KMC1 200406Z 11005KT 29/18 A2998 RMK A01 T02870182  RH  053%=      5-min Rain = 0
KMC1 200407Z 11006KT 29/18 A2998 RMK A01 T02870182  RH  053%=      5-min Rain = 0
KMC1 200408Z 11005KT 29/18 A2998 RMK A01 T02860182  RH  053%=      5-min Rain = 0
KMC1 200409Z 11006KT 29/18 A2998 RMK A01 T02860182  RH  053%=      5-min Rain = 0
KMC1 200410Z 11005KT 29/18 A2998 RMK A01 T02850182  RH  054%=      5-min Rain = 0
KMC1 200411Z 11004KT 29/18 A2998 RMK A01 T02850182  RH  054%=      5-min Rain = 0
KMC1 200412Z 11005KT 28/18 A2999 RMK A01 T02840182  RH  054%=      5-min Rain = 0
KMC1 200413Z 10005KT 28/18 A2999 RMK A01 T02830182  RH  054%=      5-min Rain = 0
KMC1 200414Z 10004KT 28/18 A2999 RMK A01 T02830182  RH  054%=      5-min Rain = 0
KMC1 200415Z 11005KT 28/18 A2999 RMK A01 T02820182  RH  055%=      5-min Rain = 0
KMC1 200416Z 11004KT 28/18 A2999 RMK A01 T02810182  RH  055%=      5-min Rain = 0
KMC1 200417Z 11006KT 28/18 A2999 RMK A01 T02810182  RH  055%=      5-min Rain = 0
KMC1 200418Z 11005KT 28/18 A2999 RMK A01 T02800182  RH  055%=      5-min Rain = 0
KMC1 200419Z 11007KT 28/18 A2999 RMK A01 T02800183  RH  055%=      5-min Rain = 0
KMC1 200420Z 11005KT 28/18 A2999 RMK A01 T02810183  RH  055%=      5-min Rain = 0
KMC1 200421Z 12006KT 28/18 A2999 RMK A01 T02810183  RH  055%=      5-min Rain = 0
KMC1 200422Z 12005KT 28/18 A2999 RMK A01 T02810184  RH  056%=      5-min Rain = 0
KMC1 200423Z 12006KT 28/18 A2999 RMK A01 T02810184  RH  056%=      5-min Rain = 0
KMC1 200424Z 11005KT 28/19 A2999 RMK A01 T02810185  RH  056%=      5-min Rain = 0
KMC1 200425Z 12007KT 28/19 A2999 RMK A01 T02800185  RH  056%=      5-min Rain = 0
KMC1 200426Z 12007KT 28/19 A2999 RMK A01 T02800186  RH  056%=      5-min Rain = 0
KMC1 200427Z 11005KT 28/19 A2999 RMK A01 T02800186  RH  056%=      5-min Rain = 0
KMC1 200428Z 12005KT 28/19 A2999 RMK A01 T02800186  RH  056%=      5-min Rain = 0
KMC1 200429Z 13006KT 28/19 A2999 RMK A01 T02800186  RH  057%=      5-min Rain = 0
KMC1 200430Z 13008KT 28/19 A2999 RMK A01 T02790187  RH  057%=      5-min Rain = 0
KMC1 200431Z 12007KT 28/19 A2999 RMK A01 T02790187  RH  057%=      5-min Rain = 0
KMC1 200432Z 12007KT 28/19 A2999 RMK A01 T02800187  RH  057%=      5-min Rain = 0
KMC1 200433Z 12006KT 28/19 A2999 RMK A01 T02800187  RH  057%=      5-min Rain = 0
KMC1 200434Z 12008KT 28/19 A2999 RMK A01 T02800187  RH  057%=      5-min Rain = 0
KMC1 200435Z 12006KT 28/19 A2999 RMK A01 T02800188  RH  057%=      5-min Rain = 0
KMC1 200436Z 12007KT 28/19 A2999 RMK A01 T02800188  RH  057%=      5-min Rain = 0
KMC1 200437Z 12006KT 28/19 A2999 RMK A01 T02800188  RH  057%=      5-min Rain = 0
KMC1 200438Z 12006KT 28/19 A2999 RMK A01 T02800189  RH  058%=      5-min Rain = 0
KMC1 200439Z 12006KT 28/19 A2999 RMK A01 T02800189  RH  058%=      5-min Rain = 0
KMC1 200440Z 11006KT 28/19 A2999 RMK A01 T02790189  RH  058%=      5-min Rain = 0
KMC1 200441Z 12008KT 28/19 A2999 RMK A01 T02790189  RH  058%=      5-min Rain = 0
KMC1 200442Z 12006KT 28/19 A2999 RMK A01 T02790189  RH  058%=      5-min Rain = 0
KMC1 200443Z 13006KT 28/19 A2999 RMK A01 T02790189  RH  058%=      5-min Rain = 0
KMC1 200444Z 12007KT 28/19 A2999 RMK A01 T02790189  RH  058%=      5-min Rain = 0
KMC1 200445Z 13007KT 28/19 A2999 RMK A01 T02790190  RH  058%=      5-min Rain = 0
KMC1 200446Z 12005KT 28/19 A2999 RMK A01 T02790190  RH  059%=      5-min Rain = 0
KMC1 200447Z 12008KT 28/19 A2999 RMK A01 T02780190  RH  059%=      5-min Rain = 0
KMC1 200448Z 12006KT 28/19 A2999 RMK A01 T02780190  RH  059%=      5-min Rain = 0
KMC1 200449Z 12005KT 28/19 A2999 RMK A01 T02780190  RH  059%=      5-min Rain = 0
KMC1 200450Z 12010KT 28/19 A2999 RMK A01 T02780191  RH  059%=      5-min Rain = 0
KMC1 200451Z 13006KT 28/19 A30 RMK A01 T02780191  RH  059%=      5-min Rain = 0
KMC1 200452Z 12007G12KT 28/19 A30 RMK A01 T02780191  RH  059%=      5-min Rain = 0
KMC1 200453Z 12007KT 28/19 A30 RMK A01 T02780192  RH  059%=      5-min Rain = 0
KMC1 200454Z 12008KT 28/19 A30 RMK A01 T02780191  RH  059%=      5-min Rain = 0
KMC1 200455Z 11008KT 28/19 A30 RMK A01 T02790192  RH  059%=      5-min Rain = 0
KMC1 200456Z 12008KT 28/19 A30 RMK A01 T02780192  RH  059%=      5-min Rain = 0
KMC1 200457Z 13010KT 28/19 A30 RMK A01 T02780193  RH  060%=      5-min Rain = 0
KMC1 200458Z 12009KT 28/19 A30 RMK A01 T02790193  RH  060%=      5-min Rain = 0
KMC1 200459Z 13008KT 28/19 A30 RMK A01 T02790194  RH  060%=      5-min Rain = 0

Page generated in 0.2331 seconds.